<?xml version="1.0" encoding="UTF-8" standalone="no" ?>
<gpx xmlns="http://www.topografix.com/GPX/1/1" xmlns:xsi="http://www.w3.org/2001/XMLSchema-instance" xsi:schemaLocation="http://www.topografix.com/GPX/1/1 http://www.topografix.com/GPX/1/1/gpx.xsd" version="1.1" creator="VisuGPX - https://www.visugpx.com">
  <metadata>
    <name>Thorame (04) - Fabas (82) -  2021</name>
    <desc><![CDATA[Thorame (04) - Fabas (82) -  2021
plus de voies vertes qu'à l'aller vers Tarascon...]]></desc>
  </metadata>
  <trk>
    <name><![CDATA[Jour03]]></name>
    <trkseg>
      <trkpt lat="43.82155" lon="4.63642">
        <ele>12.1</ele>
        <time>2021-08-15T06:12:44Z</time>
      </trkpt>
      <trkpt lat="43.82222" lon="4.63527">
        <ele>12.1</ele>
        <time>2021-08-15T06:13:09Z</time>
      </trkpt>
      <trkpt lat="43.82277" lon="4.63432">
        <ele>9.9</ele>
        <time>2021-08-15T06:13:34Z</time>
      </trkpt>
      <trkpt lat="43.82326" lon="4.63317">
        <ele>6.3</ele>
        <time>2021-08-15T06:13:59Z</time>
      </trkpt>
      <trkpt lat="43.82358" lon="4.63198">
        <ele>1.3</ele>
        <time>2021-08-15T06:14:24Z</time>
      </trkpt>
      <trkpt lat="43.82395" lon="4.63064">
        <ele>2.5</ele>
        <time>2021-08-15T06:14:54Z</time>
      </trkpt>
      <trkpt lat="43.82454" lon="4.62936">
        <ele>3.1</ele>
        <time>2021-08-15T06:15:24Z</time>
      </trkpt>
      <trkpt lat="43.82504" lon="4.62823">
        <ele>-2.5</ele>
        <time>2021-08-15T06:15:54Z</time>
      </trkpt>
      <trkpt lat="43.82549" lon="4.62713">
        <ele>-1</ele>
        <time>2021-08-15T06:16:19Z</time>
      </trkpt>
      <trkpt lat="43.82625" lon="4.62638">
        <ele>7.6</ele>
        <time>2021-08-15T06:16:44Z</time>
      </trkpt>
      <trkpt lat="43.8263" lon="4.62505">
        <ele>11.7</ele>
        <time>2021-08-15T06:19:02Z</time>
      </trkpt>
      <trkpt lat="43.82675" lon="4.62383">
        <ele>9.5</ele>
        <time>2021-08-15T06:19:55Z</time>
      </trkpt>
      <trkpt lat="43.82713" lon="4.62256">
        <ele>15.7</ele>
        <time>2021-08-15T06:21:58Z</time>
      </trkpt>
      <trkpt lat="43.82764" lon="4.62144">
        <ele>17.3</ele>
        <time>2021-08-15T06:22:18Z</time>
      </trkpt>
      <trkpt lat="43.82856" lon="4.62055">
        <ele>20.6</ele>
        <time>2021-08-15T06:22:43Z</time>
      </trkpt>
      <trkpt lat="43.82934" lon="4.61971">
        <ele>22.1</ele>
        <time>2021-08-15T06:23:03Z</time>
      </trkpt>
      <trkpt lat="43.83011" lon="4.61872">
        <ele>20.7</ele>
        <time>2021-08-15T06:23:28Z</time>
      </trkpt>
      <trkpt lat="43.83083" lon="4.61788">
        <ele>20.1</ele>
        <time>2021-08-15T06:23:53Z</time>
      </trkpt>
      <trkpt lat="43.83169" lon="4.61738">
        <ele>21.4</ele>
        <time>2021-08-15T06:24:13Z</time>
      </trkpt>
      <trkpt lat="43.8327" lon="4.61735">
        <ele>20.4</ele>
        <time>2021-08-15T06:24:33Z</time>
      </trkpt>
      <trkpt lat="43.83377" lon="4.61755">
        <ele>14</ele>
        <time>2021-08-15T06:24:53Z</time>
      </trkpt>
      <trkpt lat="43.83478" lon="4.6178">
        <ele>18.6</ele>
        <time>2021-08-15T06:25:13Z</time>
      </trkpt>
      <trkpt lat="43.83574" lon="4.61797">
        <ele>19.6</ele>
        <time>2021-08-15T06:25:33Z</time>
      </trkpt>
      <trkpt lat="43.83679" lon="4.61873">
        <ele>14.4</ele>
        <time>2021-08-15T06:25:53Z</time>
      </trkpt>
      <trkpt lat="43.83778" lon="4.61942">
        <ele>14.8</ele>
        <time>2021-08-15T06:26:13Z</time>
      </trkpt>
      <trkpt lat="43.83876" lon="4.61954">
        <ele>17</ele>
        <time>2021-08-15T06:26:33Z</time>
      </trkpt>
      <trkpt lat="43.83964" lon="4.61915">
        <ele>14.8</ele>
        <time>2021-08-15T06:27:13Z</time>
      </trkpt>
      <trkpt lat="43.84243" lon="4.61612">
        <ele>19.6</ele>
        <time>2021-08-15T06:28:21Z</time>
      </trkpt>
      <trkpt lat="43.84268" lon="4.61489">
        <ele>16.1</ele>
        <time>2021-08-15T06:28:36Z</time>
      </trkpt>
      <trkpt lat="43.84311" lon="4.61372">
        <ele>14.5</ele>
        <time>2021-08-15T06:28:51Z</time>
      </trkpt>
      <trkpt lat="43.84351" lon="4.61259">
        <ele>13.3</ele>
        <time>2021-08-15T06:29:06Z</time>
      </trkpt>
      <trkpt lat="43.84395" lon="4.61148">
        <ele>11.4</ele>
        <time>2021-08-15T06:29:21Z</time>
      </trkpt>
      <trkpt lat="43.8443" lon="4.61027">
        <ele>10.2</ele>
        <time>2021-08-15T06:29:36Z</time>
      </trkpt>
      <trkpt lat="43.84464" lon="4.60872">
        <ele>9.2</ele>
        <time>2021-08-15T06:29:56Z</time>
      </trkpt>
      <trkpt lat="43.84512" lon="4.6077">
        <ele>5.9</ele>
        <time>2021-08-15T06:30:11Z</time>
      </trkpt>
      <trkpt lat="43.84583" lon="4.60696">
        <ele>10.6</ele>
        <time>2021-08-15T06:30:31Z</time>
      </trkpt>
      <trkpt lat="43.84673" lon="4.60617">
        <ele>9.9</ele>
        <time>2021-08-15T06:30:56Z</time>
      </trkpt>
      <trkpt lat="43.84748" lon="4.60547">
        <ele>10.7</ele>
        <time>2021-08-15T06:31:11Z</time>
      </trkpt>
      <trkpt lat="43.84832" lon="4.60446">
        <ele>14.3</ele>
        <time>2021-08-15T06:31:31Z</time>
      </trkpt>
      <trkpt lat="43.84886" lon="4.60324">
        <ele>13.6</ele>
        <time>2021-08-15T06:31:51Z</time>
      </trkpt>
      <trkpt lat="43.84908" lon="4.60196">
        <ele>13.5</ele>
        <time>2021-08-15T06:32:11Z</time>
      </trkpt>
      <trkpt lat="43.84923" lon="4.60044">
        <ele>14.3</ele>
        <time>2021-08-15T06:32:31Z</time>
      </trkpt>
      <trkpt lat="43.84947" lon="4.59909">
        <ele>18.1</ele>
        <time>2021-08-15T06:32:46Z</time>
      </trkpt>
      <trkpt lat="43.84962" lon="4.59772">
        <ele>13.7</ele>
        <time>2021-08-15T06:34:50Z</time>
      </trkpt>
      <trkpt lat="43.84998" lon="4.5962">
        <ele>12.2</ele>
        <time>2021-08-15T06:35:10Z</time>
      </trkpt>
      <trkpt lat="43.85042" lon="4.59514">
        <ele>12.2</ele>
        <time>2021-08-15T06:35:25Z</time>
      </trkpt>
      <trkpt lat="43.85112" lon="4.59393">
        <ele>13.2</ele>
        <time>2021-08-15T06:35:45Z</time>
      </trkpt>
      <trkpt lat="43.85195" lon="4.59296">
        <ele>15.9</ele>
        <time>2021-08-15T06:36:10Z</time>
      </trkpt>
      <trkpt lat="43.85269" lon="4.5923">
        <ele>16.1</ele>
        <time>2021-08-15T06:36:25Z</time>
      </trkpt>
      <trkpt lat="43.85352" lon="4.59161">
        <ele>18.2</ele>
        <time>2021-08-15T06:36:40Z</time>
      </trkpt>
      <trkpt lat="43.85433" lon="4.59078">
        <ele>17.7</ele>
        <time>2021-08-15T06:37:00Z</time>
      </trkpt>
      <trkpt lat="43.85515" lon="4.59003">
        <ele>16.9</ele>
        <time>2021-08-15T06:37:15Z</time>
      </trkpt>
      <trkpt lat="43.85606" lon="4.58909">
        <ele>18.9</ele>
        <time>2021-08-15T06:37:35Z</time>
      </trkpt>
      <trkpt lat="43.857" lon="4.58826">
        <ele>19.9</ele>
        <time>2021-08-15T06:37:55Z</time>
      </trkpt>
      <trkpt lat="43.85784" lon="4.58748">
        <ele>19.7</ele>
        <time>2021-08-15T06:38:15Z</time>
      </trkpt>
      <trkpt lat="43.85884" lon="4.58751">
        <ele>17.5</ele>
        <time>2021-08-15T06:38:35Z</time>
      </trkpt>
      <trkpt lat="43.85904" lon="4.58629">
        <ele>16</ele>
        <time>2021-08-15T06:39:00Z</time>
      </trkpt>
      <trkpt lat="43.85984" lon="4.58555">
        <ele>17.8</ele>
        <time>2021-08-15T06:39:20Z</time>
      </trkpt>
      <trkpt lat="43.86066" lon="4.58477">
        <ele>18.3</ele>
        <time>2021-08-15T06:39:40Z</time>
      </trkpt>
      <trkpt lat="43.86157" lon="4.58393">
        <ele>18.8</ele>
        <time>2021-08-15T06:40:00Z</time>
      </trkpt>
      <trkpt lat="43.86239" lon="4.58311">
        <ele>18.1</ele>
        <time>2021-08-15T06:40:20Z</time>
      </trkpt>
      <trkpt lat="43.86311" lon="4.58241">
        <ele>17</ele>
        <time>2021-08-15T06:40:40Z</time>
      </trkpt>
      <trkpt lat="43.86399" lon="4.58157">
        <ele>22.1</ele>
        <time>2021-08-15T06:41:00Z</time>
      </trkpt>
      <trkpt lat="43.86484" lon="4.5809">
        <ele>23.9</ele>
        <time>2021-08-15T06:42:13Z</time>
      </trkpt>
      <trkpt lat="43.86567" lon="4.57999">
        <ele>23.6</ele>
        <time>2021-08-15T06:42:38Z</time>
      </trkpt>
      <trkpt lat="43.86661" lon="4.57914">
        <ele>26.3</ele>
        <time>2021-08-15T06:42:58Z</time>
      </trkpt>
      <trkpt lat="43.86749" lon="4.57827">
        <ele>24.4</ele>
        <time>2021-08-15T06:43:18Z</time>
      </trkpt>
      <trkpt lat="43.86824" lon="4.57759">
        <ele>22.4</ele>
        <time>2021-08-15T06:43:33Z</time>
      </trkpt>
      <trkpt lat="43.86918" lon="4.57697">
        <ele>22.3</ele>
        <time>2021-08-15T06:43:53Z</time>
      </trkpt>
      <trkpt lat="43.87012" lon="4.57664">
        <ele>18.8</ele>
        <time>2021-08-15T06:44:08Z</time>
      </trkpt>
      <trkpt lat="43.87106" lon="4.57649">
        <ele>17.5</ele>
        <time>2021-08-15T06:44:23Z</time>
      </trkpt>
      <trkpt lat="43.872" lon="4.57626">
        <ele>18</ele>
        <time>2021-08-15T06:44:38Z</time>
      </trkpt>
      <trkpt lat="43.87313" lon="4.57613">
        <ele>25.4</ele>
        <time>2021-08-15T06:44:58Z</time>
      </trkpt>
      <trkpt lat="43.87427" lon="4.57598">
        <ele>22.8</ele>
        <time>2021-08-15T06:45:23Z</time>
      </trkpt>
      <trkpt lat="43.87545" lon="4.57577">
        <ele>20.7</ele>
        <time>2021-08-15T06:45:43Z</time>
      </trkpt>
      <trkpt lat="43.8766" lon="4.57539">
        <ele>21.2</ele>
        <time>2021-08-15T06:46:03Z</time>
      </trkpt>
      <trkpt lat="43.87765" lon="4.57498">
        <ele>23.4</ele>
        <time>2021-08-15T06:46:23Z</time>
      </trkpt>
      <trkpt lat="43.87868" lon="4.57435">
        <ele>23.3</ele>
        <time>2021-08-15T06:46:43Z</time>
      </trkpt>
      <trkpt lat="43.87963" lon="4.57359">
        <ele>23.5</ele>
        <time>2021-08-15T06:47:03Z</time>
      </trkpt>
      <trkpt lat="43.88051" lon="4.57295">
        <ele>24.7</ele>
        <time>2021-08-15T06:47:23Z</time>
      </trkpt>
      <trkpt lat="43.88141" lon="4.57214">
        <ele>25.1</ele>
        <time>2021-08-15T06:47:43Z</time>
      </trkpt>
      <trkpt lat="43.8824" lon="4.57132">
        <ele>26.1</ele>
        <time>2021-08-15T06:48:03Z</time>
      </trkpt>
      <trkpt lat="43.88335" lon="4.57051">
        <ele>26.1</ele>
        <time>2021-08-15T06:48:23Z</time>
      </trkpt>
      <trkpt lat="43.88418" lon="4.56982">
        <ele>20.7</ele>
        <time>2021-08-15T06:48:43Z</time>
      </trkpt>
      <trkpt lat="43.88505" lon="4.56899">
        <ele>17.4</ele>
        <time>2021-08-15T06:49:03Z</time>
      </trkpt>
      <trkpt lat="43.88593" lon="4.56833">
        <ele>16.4</ele>
        <time>2021-08-15T06:49:18Z</time>
      </trkpt>
      <trkpt lat="43.88688" lon="4.56745">
        <ele>17.9</ele>
        <time>2021-08-15T06:49:38Z</time>
      </trkpt>
      <trkpt lat="43.88785" lon="4.56664">
        <ele>20</ele>
        <time>2021-08-15T06:49:58Z</time>
      </trkpt>
      <trkpt lat="43.88869" lon="4.5659">
        <ele>22.4</ele>
        <time>2021-08-15T06:50:18Z</time>
      </trkpt>
      <trkpt lat="43.88961" lon="4.56506">
        <ele>21.8</ele>
        <time>2021-08-15T06:50:38Z</time>
      </trkpt>
      <trkpt lat="43.89059" lon="4.56437">
        <ele>22.5</ele>
        <time>2021-08-15T06:50:58Z</time>
      </trkpt>
      <trkpt lat="43.89154" lon="4.5639">
        <ele>24.2</ele>
        <time>2021-08-15T06:51:18Z</time>
      </trkpt>
      <trkpt lat="43.89256" lon="4.56357">
        <ele>23.8</ele>
        <time>2021-08-15T06:51:38Z</time>
      </trkpt>
      <trkpt lat="43.89369" lon="4.56329">
        <ele>22.1</ele>
        <time>2021-08-15T06:51:58Z</time>
      </trkpt>
      <trkpt lat="43.89463" lon="4.56308">
        <ele>22</ele>
        <time>2021-08-15T06:52:13Z</time>
      </trkpt>
      <trkpt lat="43.89577" lon="4.56283">
        <ele>25.1</ele>
        <time>2021-08-15T06:52:33Z</time>
      </trkpt>
      <trkpt lat="43.89677" lon="4.56251">
        <ele>27</ele>
        <time>2021-08-15T06:52:53Z</time>
      </trkpt>
      <trkpt lat="43.89785" lon="4.56232">
        <ele>31</ele>
        <time>2021-08-15T06:53:13Z</time>
      </trkpt>
      <trkpt lat="43.89872" lon="4.56209">
        <ele>31.1</ele>
        <time>2021-08-15T06:53:28Z</time>
      </trkpt>
      <trkpt lat="43.89987" lon="4.56185">
        <ele>25.2</ele>
        <time>2021-08-15T06:53:48Z</time>
      </trkpt>
      <trkpt lat="43.90095" lon="4.56156">
        <ele>26.9</ele>
        <time>2021-08-15T06:54:08Z</time>
      </trkpt>
      <trkpt lat="43.90199" lon="4.56132">
        <ele>28.1</ele>
        <time>2021-08-15T06:54:28Z</time>
      </trkpt>
      <trkpt lat="43.90306" lon="4.56108">
        <ele>27.2</ele>
        <time>2021-08-15T06:54:48Z</time>
      </trkpt>
      <trkpt lat="43.90418" lon="4.56082">
        <ele>28.1</ele>
        <time>2021-08-15T06:55:08Z</time>
      </trkpt>
      <trkpt lat="43.90526" lon="4.56056">
        <ele>28.4</ele>
        <time>2021-08-15T06:55:28Z</time>
      </trkpt>
      <trkpt lat="43.90617" lon="4.56034">
        <ele>32.6</ele>
        <time>2021-08-15T06:55:48Z</time>
      </trkpt>
      <trkpt lat="43.90715" lon="4.56011">
        <ele>33.9</ele>
        <time>2021-08-15T06:56:08Z</time>
      </trkpt>
      <trkpt lat="43.90816" lon="4.55991">
        <ele>33.7</ele>
        <time>2021-08-15T06:56:23Z</time>
      </trkpt>
      <trkpt lat="43.90916" lon="4.55965">
        <ele>29.9</ele>
        <time>2021-08-15T06:56:38Z</time>
      </trkpt>
      <trkpt lat="43.91008" lon="4.5594">
        <ele>28.3</ele>
        <time>2021-08-15T06:56:53Z</time>
      </trkpt>
      <trkpt lat="43.91101" lon="4.55918">
        <ele>27.4</ele>
        <time>2021-08-15T06:57:08Z</time>
      </trkpt>
      <trkpt lat="43.91217" lon="4.55893">
        <ele>28.3</ele>
        <time>2021-08-15T06:57:28Z</time>
      </trkpt>
      <trkpt lat="43.91315" lon="4.55887">
        <ele>28.9</ele>
        <time>2021-08-15T06:57:48Z</time>
      </trkpt>
      <trkpt lat="43.91422" lon="4.55883">
        <ele>33.6</ele>
        <time>2021-08-15T06:58:08Z</time>
      </trkpt>
      <trkpt lat="43.91539" lon="4.55887">
        <ele>31.9</ele>
        <time>2021-08-15T06:58:28Z</time>
      </trkpt>
      <trkpt lat="43.91631" lon="4.55889">
        <ele>29.8</ele>
        <time>2021-08-15T06:58:43Z</time>
      </trkpt>
      <trkpt lat="43.91721" lon="4.55889">
        <ele>28.4</ele>
        <time>2021-08-15T06:58:58Z</time>
      </trkpt>
      <trkpt lat="43.91826" lon="4.55889">
        <ele>29.5</ele>
        <time>2021-08-15T06:59:18Z</time>
      </trkpt>
      <trkpt lat="43.91944" lon="4.5589">
        <ele>28.4</ele>
        <time>2021-08-15T06:59:38Z</time>
      </trkpt>
      <trkpt lat="43.92059" lon="4.55892">
        <ele>29.4</ele>
        <time>2021-08-15T06:59:58Z</time>
      </trkpt>
      <trkpt lat="43.92169" lon="4.55892">
        <ele>26.8</ele>
        <time>2021-08-15T07:00:18Z</time>
      </trkpt>
      <trkpt lat="43.92277" lon="4.55893">
        <ele>33</ele>
        <time>2021-08-15T07:00:38Z</time>
      </trkpt>
      <trkpt lat="43.92371" lon="4.55894">
        <ele>34.8</ele>
        <time>2021-08-15T07:00:58Z</time>
      </trkpt>
      <trkpt lat="43.92485" lon="4.55898">
        <ele>33.1</ele>
        <time>2021-08-15T07:01:18Z</time>
      </trkpt>
      <trkpt lat="43.92598" lon="4.55898">
        <ele>40.9</ele>
        <time>2021-08-15T07:01:38Z</time>
      </trkpt>
      <trkpt lat="43.9271" lon="4.55893">
        <ele>40.8</ele>
        <time>2021-08-15T07:01:58Z</time>
      </trkpt>
      <trkpt lat="43.92821" lon="4.559">
        <ele>43.9</ele>
        <time>2021-08-15T07:02:18Z</time>
      </trkpt>
      <trkpt lat="43.92921" lon="4.55898">
        <ele>45.7</ele>
        <time>2021-08-15T07:02:33Z</time>
      </trkpt>
      <trkpt lat="43.93015" lon="4.55905">
        <ele>35.5</ele>
        <time>2021-08-15T07:02:48Z</time>
      </trkpt>
      <trkpt lat="43.9312" lon="4.55948">
        <ele>34.4</ele>
        <time>2021-08-15T07:03:08Z</time>
      </trkpt>
      <trkpt lat="43.93217" lon="4.55977">
        <ele>31.6</ele>
        <time>2021-08-15T07:03:33Z</time>
      </trkpt>
      <trkpt lat="43.93306" lon="4.55945">
        <ele>29.6</ele>
        <time>2021-08-15T07:04:05Z</time>
      </trkpt>
      <trkpt lat="43.93384" lon="4.55852">
        <ele>26.8</ele>
        <time>2021-08-15T07:04:30Z</time>
      </trkpt>
      <trkpt lat="43.93424" lon="4.5574">
        <ele>25.6</ele>
        <time>2021-08-15T07:04:50Z</time>
      </trkpt>
      <trkpt lat="43.9352" lon="4.55712">
        <ele>29.7</ele>
        <time>2021-08-15T07:05:50Z</time>
      </trkpt>
      <trkpt lat="43.93609" lon="4.55673">
        <ele>29.8</ele>
        <time>2021-08-15T07:06:10Z</time>
      </trkpt>
      <trkpt lat="43.93699" lon="4.55612">
        <ele>31.6</ele>
        <time>2021-08-15T07:06:35Z</time>
      </trkpt>
      <trkpt lat="43.93768" lon="4.5552">
        <ele>31.8</ele>
        <time>2021-08-15T07:07:00Z</time>
      </trkpt>
      <trkpt lat="43.93689" lon="4.55585">
        <ele>27.8</ele>
        <time>2021-08-15T07:14:45Z</time>
      </trkpt>
      <trkpt lat="43.93754" lon="4.55716">
        <ele>33.4</ele>
        <time>2021-08-15T07:15:15Z</time>
      </trkpt>
      <trkpt lat="43.93816" lon="4.55831">
        <ele>34.6</ele>
        <time>2021-08-15T07:15:35Z</time>
      </trkpt>
      <trkpt lat="43.93869" lon="4.55939">
        <ele>37.4</ele>
        <time>2021-08-15T07:15:55Z</time>
      </trkpt>
      <trkpt lat="43.9382" lon="4.55828">
        <ele>37.5</ele>
        <time>2021-08-15T07:32:21Z</time>
      </trkpt>
      <trkpt lat="43.93763" lon="4.55723">
        <ele>40.7</ele>
        <time>2021-08-15T07:32:53Z</time>
      </trkpt>
      <trkpt lat="43.93714" lon="4.55604">
        <ele>43</ele>
        <time>2021-08-15T07:33:18Z</time>
      </trkpt>
      <trkpt lat="43.93779" lon="4.5551">
        <ele>42.3</ele>
        <time>2021-08-15T07:33:38Z</time>
      </trkpt>
      <trkpt lat="43.93874" lon="4.55434">
        <ele>39.1</ele>
        <time>2021-08-15T07:34:03Z</time>
      </trkpt>
      <trkpt lat="43.93966" lon="4.55365">
        <ele>33</ele>
        <time>2021-08-15T07:34:28Z</time>
      </trkpt>
      <trkpt lat="43.94049" lon="4.55292">
        <ele>28.3</ele>
        <time>2021-08-15T07:34:48Z</time>
      </trkpt>
      <trkpt lat="43.94137" lon="4.55227">
        <ele>24.7</ele>
        <time>2021-08-15T07:35:08Z</time>
      </trkpt>
      <trkpt lat="43.94216" lon="4.55169">
        <ele>21.4</ele>
        <time>2021-08-15T07:35:28Z</time>
      </trkpt>
      <trkpt lat="43.94298" lon="4.55111">
        <ele>19.8</ele>
        <time>2021-08-15T07:35:48Z</time>
      </trkpt>
      <trkpt lat="43.94389" lon="4.55034">
        <ele>18.6</ele>
        <time>2021-08-15T07:36:18Z</time>
      </trkpt>
      <trkpt lat="43.94465" lon="4.5497">
        <ele>27.2</ele>
        <time>2021-08-15T07:36:38Z</time>
      </trkpt>
      <trkpt lat="43.94546" lon="4.54894">
        <ele>32.4</ele>
        <time>2021-08-15T07:36:58Z</time>
      </trkpt>
      <trkpt lat="43.94629" lon="4.54818">
        <ele>33.3</ele>
        <time>2021-08-15T07:37:18Z</time>
      </trkpt>
      <trkpt lat="43.94713" lon="4.54715">
        <ele>33.4</ele>
        <time>2021-08-15T07:37:43Z</time>
      </trkpt>
      <trkpt lat="43.94773" lon="4.5462">
        <ele>34.3</ele>
        <time>2021-08-15T07:37:58Z</time>
      </trkpt>
      <trkpt lat="43.94841" lon="4.54505">
        <ele>32.3</ele>
        <time>2021-08-15T07:38:23Z</time>
      </trkpt>
      <trkpt lat="43.94892" lon="4.54399">
        <ele>29.5</ele>
        <time>2021-08-15T07:38:48Z</time>
      </trkpt>
      <trkpt lat="43.94981" lon="4.54343">
        <ele>30.1</ele>
        <time>2021-08-15T07:39:33Z</time>
      </trkpt>
      <trkpt lat="43.95077" lon="4.54283">
        <ele>31.1</ele>
        <time>2021-08-15T07:39:58Z</time>
      </trkpt>
      <trkpt lat="43.95056" lon="4.54144">
        <ele>34.7</ele>
        <time>2021-08-15T07:40:28Z</time>
      </trkpt>
      <trkpt lat="43.94986" lon="4.54039">
        <ele>36.2</ele>
        <time>2021-08-15T07:41:04Z</time>
      </trkpt>
      <trkpt lat="43.949" lon="4.53983">
        <ele>33.4</ele>
        <time>2021-08-15T07:41:39Z</time>
      </trkpt>
      <trkpt lat="43.94856" lon="4.53856">
        <ele>37.2</ele>
        <time>2021-08-15T07:42:14Z</time>
      </trkpt>
      <trkpt lat="43.94777" lon="4.53765">
        <ele>35.4</ele>
        <time>2021-08-15T07:45:00Z</time>
      </trkpt>
      <trkpt lat="43.94705" lon="4.53669">
        <ele>36.8</ele>
        <time>2021-08-15T07:45:35Z</time>
      </trkpt>
      <trkpt lat="43.94726" lon="4.53541">
        <ele>39.9</ele>
        <time>2021-08-15T07:47:20Z</time>
      </trkpt>
      <trkpt lat="43.94816" lon="4.53496">
        <ele>45.1</ele>
        <time>2021-08-15T07:47:55Z</time>
      </trkpt>
      <trkpt lat="43.94905" lon="4.53556">
        <ele>46.6</ele>
        <time>2021-08-15T07:48:25Z</time>
      </trkpt>
      <trkpt lat="43.95009" lon="4.53556">
        <ele>52.9</ele>
        <time>2021-08-15T07:50:29Z</time>
      </trkpt>
      <trkpt lat="43.95104" lon="4.53562">
        <ele>50.9</ele>
        <time>2021-08-15T07:50:59Z</time>
      </trkpt>
      <trkpt lat="43.95192" lon="4.53506">
        <ele>47.9</ele>
        <time>2021-08-15T07:51:56Z</time>
      </trkpt>
      <trkpt lat="43.95268" lon="4.53442">
        <ele>47.9</ele>
        <time>2021-08-15T07:52:52Z</time>
      </trkpt>
      <trkpt lat="43.95363" lon="4.53436">
        <ele>44</ele>
        <time>2021-08-15T07:53:22Z</time>
      </trkpt>
      <trkpt lat="43.95428" lon="4.53534">
        <ele>46.6</ele>
        <time>2021-08-15T07:54:52Z</time>
      </trkpt>
      <trkpt lat="43.95342" lon="4.53575">
        <ele>50</ele>
        <time>2021-08-15T07:55:32Z</time>
      </trkpt>
      <trkpt lat="43.95247" lon="4.53625">
        <ele>53</ele>
        <time>2021-08-15T07:56:02Z</time>
      </trkpt>
      <trkpt lat="43.95309" lon="4.53761">
        <ele>48.1</ele>
        <time>2021-08-15T07:56:42Z</time>
      </trkpt>
      <trkpt lat="43.95407" lon="4.53861">
        <ele>45.9</ele>
        <time>2021-08-15T07:57:02Z</time>
      </trkpt>
      <trkpt lat="43.95487" lon="4.53954">
        <ele>42.4</ele>
        <time>2021-08-15T07:57:27Z</time>
      </trkpt>
      <trkpt lat="43.95494" lon="4.53829">
        <ele>42.7</ele>
        <time>2021-08-15T07:57:52Z</time>
      </trkpt>
      <trkpt lat="43.95485" lon="4.53683">
        <ele>46.1</ele>
        <time>2021-08-15T07:58:17Z</time>
      </trkpt>
      <trkpt lat="43.95493" lon="4.53545">
        <ele>50.9</ele>
        <time>2021-08-15T07:58:42Z</time>
      </trkpt>
      <trkpt lat="43.95543" lon="4.53418">
        <ele>56.4</ele>
        <time>2021-08-15T07:59:07Z</time>
      </trkpt>
      <trkpt lat="43.95593" lon="4.533">
        <ele>57.7</ele>
        <time>2021-08-15T07:59:32Z</time>
      </trkpt>
      <trkpt lat="43.9564" lon="4.53177">
        <ele>55.7</ele>
        <time>2021-08-15T08:00:02Z</time>
      </trkpt>
      <trkpt lat="43.95714" lon="4.53079">
        <ele>55.6</ele>
        <time>2021-08-15T08:00:55Z</time>
      </trkpt>
      <trkpt lat="43.95789" lon="4.53004">
        <ele>52.5</ele>
        <time>2021-08-15T08:01:15Z</time>
      </trkpt>
      <trkpt lat="43.95893" lon="4.52969">
        <ele>45.7</ele>
        <time>2021-08-15T08:02:00Z</time>
      </trkpt>
      <trkpt lat="43.96001" lon="4.52928">
        <ele>44.9</ele>
        <time>2021-08-15T08:02:20Z</time>
      </trkpt>
      <trkpt lat="43.96112" lon="4.52869">
        <ele>44</ele>
        <time>2021-08-15T08:02:40Z</time>
      </trkpt>
      <trkpt lat="43.96204" lon="4.52766">
        <ele>43.1</ele>
        <time>2021-08-15T08:03:00Z</time>
      </trkpt>
      <trkpt lat="43.96257" lon="4.5266">
        <ele>43.6</ele>
        <time>2021-08-15T08:03:15Z</time>
      </trkpt>
      <trkpt lat="43.96307" lon="4.52538">
        <ele>43.8</ele>
        <time>2021-08-15T08:03:35Z</time>
      </trkpt>
      <trkpt lat="43.9636" lon="4.52416">
        <ele>42.8</ele>
        <time>2021-08-15T08:03:55Z</time>
      </trkpt>
      <trkpt lat="43.96406" lon="4.52297">
        <ele>41.5</ele>
        <time>2021-08-15T08:04:15Z</time>
      </trkpt>
      <trkpt lat="43.96456" lon="4.52189">
        <ele>42.9</ele>
        <time>2021-08-15T08:04:40Z</time>
      </trkpt>
      <trkpt lat="43.96506" lon="4.52066">
        <ele>47.6</ele>
        <time>2021-08-15T08:05:05Z</time>
      </trkpt>
      <trkpt lat="43.96553" lon="4.51953">
        <ele>48.3</ele>
        <time>2021-08-15T08:05:25Z</time>
      </trkpt>
      <trkpt lat="43.96593" lon="4.51829">
        <ele>52.5</ele>
        <time>2021-08-15T08:05:45Z</time>
      </trkpt>
      <trkpt lat="43.96624" lon="4.51702">
        <ele>54.4</ele>
        <time>2021-08-15T08:06:05Z</time>
      </trkpt>
      <trkpt lat="43.96642" lon="4.51569">
        <ele>61</ele>
        <time>2021-08-15T08:06:25Z</time>
      </trkpt>
      <trkpt lat="43.96652" lon="4.51443">
        <ele>71.5</ele>
        <time>2021-08-15T08:06:45Z</time>
      </trkpt>
      <trkpt lat="43.96654" lon="4.51311">
        <ele>80.7</ele>
        <time>2021-08-15T08:07:05Z</time>
      </trkpt>
      <trkpt lat="43.96641" lon="4.51168">
        <ele>82</ele>
        <time>2021-08-15T08:07:25Z</time>
      </trkpt>
      <trkpt lat="43.96614" lon="4.51012">
        <ele>72.9</ele>
        <time>2021-08-15T08:07:45Z</time>
      </trkpt>
      <trkpt lat="43.96594" lon="4.50871">
        <ele>70.9</ele>
        <time>2021-08-15T08:08:05Z</time>
      </trkpt>
      <trkpt lat="43.96593" lon="4.50734">
        <ele>66.8</ele>
        <time>2021-08-15T08:08:30Z</time>
      </trkpt>
      <trkpt lat="43.96609" lon="4.50603">
        <ele>64.2</ele>
        <time>2021-08-15T08:08:50Z</time>
      </trkpt>
      <trkpt lat="43.96643" lon="4.50474">
        <ele>60</ele>
        <time>2021-08-15T08:09:10Z</time>
      </trkpt>
      <trkpt lat="43.96689" lon="4.50354">
        <ele>57.1</ele>
        <time>2021-08-15T08:09:30Z</time>
      </trkpt>
      <trkpt lat="43.96754" lon="4.50248">
        <ele>54.1</ele>
        <time>2021-08-15T08:09:50Z</time>
      </trkpt>
      <trkpt lat="43.96824" lon="4.5012">
        <ele>55.1</ele>
        <time>2021-08-15T08:10:10Z</time>
      </trkpt>
      <trkpt lat="43.96878" lon="4.50012">
        <ele>56.8</ele>
        <time>2021-08-15T08:10:25Z</time>
      </trkpt>
      <trkpt lat="43.96935" lon="4.49916">
        <ele>58.4</ele>
        <time>2021-08-15T08:10:40Z</time>
      </trkpt>
      <trkpt lat="43.96999" lon="4.49816">
        <ele>58.6</ele>
        <time>2021-08-15T08:10:55Z</time>
      </trkpt>
      <trkpt lat="43.97052" lon="4.49715">
        <ele>59.9</ele>
        <time>2021-08-15T08:11:10Z</time>
      </trkpt>
      <trkpt lat="43.97107" lon="4.49615">
        <ele>61.2</ele>
        <time>2021-08-15T08:11:30Z</time>
      </trkpt>
      <trkpt lat="43.97162" lon="4.49515">
        <ele>58.9</ele>
        <time>2021-08-15T08:11:45Z</time>
      </trkpt>
      <trkpt lat="43.97217" lon="4.49418">
        <ele>56.5</ele>
        <time>2021-08-15T08:12:00Z</time>
      </trkpt>
      <trkpt lat="43.97276" lon="4.49313">
        <ele>54.5</ele>
        <time>2021-08-15T08:12:15Z</time>
      </trkpt>
      <trkpt lat="43.97327" lon="4.49207">
        <ele>50.6</ele>
        <time>2021-08-15T08:12:30Z</time>
      </trkpt>
      <trkpt lat="43.97368" lon="4.49076">
        <ele>54.4</ele>
        <time>2021-08-15T08:12:45Z</time>
      </trkpt>
      <trkpt lat="43.97404" lon="4.48953">
        <ele>51.1</ele>
        <time>2021-08-15T08:13:00Z</time>
      </trkpt>
      <trkpt lat="43.97439" lon="4.4884">
        <ele>50.4</ele>
        <time>2021-08-15T08:13:15Z</time>
      </trkpt>
      <trkpt lat="43.97482" lon="4.48699">
        <ele>48.8</ele>
        <time>2021-08-15T08:13:35Z</time>
      </trkpt>
      <trkpt lat="43.97525" lon="4.48561">
        <ele>50</ele>
        <time>2021-08-15T08:13:55Z</time>
      </trkpt>
      <trkpt lat="43.97566" lon="4.48426">
        <ele>53.4</ele>
        <time>2021-08-15T08:14:15Z</time>
      </trkpt>
      <trkpt lat="43.97611" lon="4.48286">
        <ele>53.6</ele>
        <time>2021-08-15T08:14:35Z</time>
      </trkpt>
      <trkpt lat="43.97651" lon="4.48149">
        <ele>53.2</ele>
        <time>2021-08-15T08:14:55Z</time>
      </trkpt>
      <trkpt lat="43.97679" lon="4.48018">
        <ele>53.2</ele>
        <time>2021-08-15T08:15:15Z</time>
      </trkpt>
      <trkpt lat="43.97702" lon="4.47881">
        <ele>54.3</ele>
        <time>2021-08-15T08:15:35Z</time>
      </trkpt>
      <trkpt lat="43.97723" lon="4.4776">
        <ele>53.7</ele>
        <time>2021-08-15T08:16:04Z</time>
      </trkpt>
      <trkpt lat="43.97749" lon="4.47619">
        <ele>53.7</ele>
        <time>2021-08-15T08:16:24Z</time>
      </trkpt>
      <trkpt lat="43.97792" lon="4.47473">
        <ele>52.5</ele>
        <time>2021-08-15T08:16:44Z</time>
      </trkpt>
      <trkpt lat="43.9783" lon="4.47362">
        <ele>54.7</ele>
        <time>2021-08-15T08:16:59Z</time>
      </trkpt>
      <trkpt lat="43.9787" lon="4.47243">
        <ele>53.6</ele>
        <time>2021-08-15T08:17:14Z</time>
      </trkpt>
      <trkpt lat="43.97911" lon="4.4712">
        <ele>55.5</ele>
        <time>2021-08-15T08:17:29Z</time>
      </trkpt>
      <trkpt lat="43.97953" lon="4.47003">
        <ele>54.4</ele>
        <time>2021-08-15T08:17:44Z</time>
      </trkpt>
      <trkpt lat="43.97992" lon="4.46889">
        <ele>53.4</ele>
        <time>2021-08-15T08:17:59Z</time>
      </trkpt>
      <trkpt lat="43.9803" lon="4.46777">
        <ele>55</ele>
        <time>2021-08-15T08:18:14Z</time>
      </trkpt>
      <trkpt lat="43.98067" lon="4.46661">
        <ele>54.9</ele>
        <time>2021-08-15T08:18:29Z</time>
      </trkpt>
      <trkpt lat="43.981" lon="4.46518">
        <ele>55.8</ele>
        <time>2021-08-15T08:18:49Z</time>
      </trkpt>
      <trkpt lat="43.98125" lon="4.46368">
        <ele>58.9</ele>
        <time>2021-08-15T08:19:09Z</time>
      </trkpt>
      <trkpt lat="43.98146" lon="4.46221">
        <ele>57.9</ele>
        <time>2021-08-15T08:19:29Z</time>
      </trkpt>
      <trkpt lat="43.98169" lon="4.4607">
        <ele>61</ele>
        <time>2021-08-15T08:19:49Z</time>
      </trkpt>
      <trkpt lat="43.9819" lon="4.45924">
        <ele>60.3</ele>
        <time>2021-08-15T08:20:09Z</time>
      </trkpt>
      <trkpt lat="43.98211" lon="4.4578">
        <ele>60.3</ele>
        <time>2021-08-15T08:20:29Z</time>
      </trkpt>
      <trkpt lat="43.98232" lon="4.4563">
        <ele>59.7</ele>
        <time>2021-08-15T08:20:49Z</time>
      </trkpt>
      <trkpt lat="43.98249" lon="4.45501">
        <ele>59.4</ele>
        <time>2021-08-15T08:21:09Z</time>
      </trkpt>
      <trkpt lat="43.98269" lon="4.45368">
        <ele>60.8</ele>
        <time>2021-08-15T08:21:29Z</time>
      </trkpt>
      <trkpt lat="43.98292" lon="4.45216">
        <ele>60.7</ele>
        <time>2021-08-15T08:21:49Z</time>
      </trkpt>
      <trkpt lat="43.98313" lon="4.45094">
        <ele>57.6</ele>
        <time>2021-08-15T08:22:04Z</time>
      </trkpt>
      <trkpt lat="43.98352" lon="4.44947">
        <ele>58.6</ele>
        <time>2021-08-15T08:22:24Z</time>
      </trkpt>
      <trkpt lat="43.98398" lon="4.44826">
        <ele>62</ele>
        <time>2021-08-15T08:22:44Z</time>
      </trkpt>
      <trkpt lat="43.98446" lon="4.44709">
        <ele>62</ele>
        <time>2021-08-15T08:22:59Z</time>
      </trkpt>
      <trkpt lat="43.98493" lon="4.44591">
        <ele>62.9</ele>
        <time>2021-08-15T08:23:14Z</time>
      </trkpt>
      <trkpt lat="43.98542" lon="4.44473">
        <ele>60.4</ele>
        <time>2021-08-15T08:23:29Z</time>
      </trkpt>
      <trkpt lat="43.98589" lon="4.44357">
        <ele>60.2</ele>
        <time>2021-08-15T08:23:44Z</time>
      </trkpt>
      <trkpt lat="43.98636" lon="4.44248">
        <ele>60.9</ele>
        <time>2021-08-15T08:23:59Z</time>
      </trkpt>
      <trkpt lat="43.98681" lon="4.44133">
        <ele>58.7</ele>
        <time>2021-08-15T08:24:14Z</time>
      </trkpt>
      <trkpt lat="43.98737" lon="4.43996">
        <ele>58.4</ele>
        <time>2021-08-15T08:24:34Z</time>
      </trkpt>
      <trkpt lat="43.98792" lon="4.43862">
        <ele>56.8</ele>
        <time>2021-08-15T08:24:54Z</time>
      </trkpt>
      <trkpt lat="43.98847" lon="4.43723">
        <ele>60.1</ele>
        <time>2021-08-15T08:25:14Z</time>
      </trkpt>
      <trkpt lat="43.98902" lon="4.43587">
        <ele>61.6</ele>
        <time>2021-08-15T08:25:34Z</time>
      </trkpt>
      <trkpt lat="43.98954" lon="4.43455">
        <ele>60.2</ele>
        <time>2021-08-15T08:25:54Z</time>
      </trkpt>
      <trkpt lat="43.99002" lon="4.43351">
        <ele>58.9</ele>
        <time>2021-08-15T08:26:14Z</time>
      </trkpt>
      <trkpt lat="43.99053" lon="4.43217">
        <ele>60.2</ele>
        <time>2021-08-15T08:26:34Z</time>
      </trkpt>
      <trkpt lat="43.99093" lon="4.43076">
        <ele>63</ele>
        <time>2021-08-15T08:26:54Z</time>
      </trkpt>
      <trkpt lat="43.99123" lon="4.42937">
        <ele>66.7</ele>
        <time>2021-08-15T08:27:19Z</time>
      </trkpt>
      <trkpt lat="43.9915" lon="4.42803">
        <ele>62.6</ele>
        <time>2021-08-15T08:27:49Z</time>
      </trkpt>
      <trkpt lat="43.99168" lon="4.42653">
        <ele>59.9</ele>
        <time>2021-08-15T08:28:14Z</time>
      </trkpt>
      <trkpt lat="43.99179" lon="4.42517">
        <ele>58.7</ele>
        <time>2021-08-15T08:28:34Z</time>
      </trkpt>
      <trkpt lat="43.99191" lon="4.42368">
        <ele>61.1</ele>
        <time>2021-08-15T08:28:59Z</time>
      </trkpt>
      <trkpt lat="43.99199" lon="4.42238">
        <ele>65.5</ele>
        <time>2021-08-15T08:29:19Z</time>
      </trkpt>
      <trkpt lat="43.99208" lon="4.42108">
        <ele>69.5</ele>
        <time>2021-08-15T08:29:39Z</time>
      </trkpt>
      <trkpt lat="43.99197" lon="4.41979">
        <ele>72</ele>
        <time>2021-08-15T08:30:04Z</time>
      </trkpt>
      <trkpt lat="43.99282" lon="4.42055">
        <ele>68.7</ele>
        <time>2021-08-15T08:31:42Z</time>
      </trkpt>
      <trkpt lat="43.99341" lon="4.41942">
        <ele>61.3</ele>
        <time>2021-08-15T08:32:07Z</time>
      </trkpt>
      <trkpt lat="43.99426" lon="4.41904">
        <ele>65.3</ele>
        <time>2021-08-15T08:32:42Z</time>
      </trkpt>
      <trkpt lat="43.99503" lon="4.41839">
        <ele>78</ele>
        <time>2021-08-15T08:33:12Z</time>
      </trkpt>
      <trkpt lat="43.99583" lon="4.41761">
        <ele>81.8</ele>
        <time>2021-08-15T08:33:47Z</time>
      </trkpt>
      <trkpt lat="43.99669" lon="4.41683">
        <ele>83.2</ele>
        <time>2021-08-15T08:34:22Z</time>
      </trkpt>
      <trkpt lat="43.99744" lon="4.41605">
        <ele>87</ele>
        <time>2021-08-15T08:34:52Z</time>
      </trkpt>
      <trkpt lat="43.99836" lon="4.41527">
        <ele>91.4</ele>
        <time>2021-08-15T08:57:14Z</time>
      </trkpt>
      <trkpt lat="43.99929" lon="4.41477">
        <ele>89.5</ele>
        <time>2021-08-15T08:57:49Z</time>
      </trkpt>
      <trkpt lat="44.00023" lon="4.41513">
        <ele>92.2</ele>
        <time>2021-08-15T08:58:14Z</time>
      </trkpt>
      <trkpt lat="44.00119" lon="4.41549">
        <ele>96.2</ele>
        <time>2021-08-15T08:58:39Z</time>
      </trkpt>
      <trkpt lat="44.00222" lon="4.41585">
        <ele>103</ele>
        <time>2021-08-15T08:59:09Z</time>
      </trkpt>
      <trkpt lat="44.00321" lon="4.4161">
        <ele>105.3</ele>
        <time>2021-08-15T08:59:44Z</time>
      </trkpt>
      <trkpt lat="44.00422" lon="4.4164">
        <ele>105.9</ele>
        <time>2021-08-15T09:00:14Z</time>
      </trkpt>
      <trkpt lat="44.00524" lon="4.41672">
        <ele>108</ele>
        <time>2021-08-15T09:00:44Z</time>
      </trkpt>
      <trkpt lat="44.00624" lon="4.41695">
        <ele>107</ele>
        <time>2021-08-15T09:01:14Z</time>
      </trkpt>
      <trkpt lat="44.00716" lon="4.41746">
        <ele>118.3</ele>
        <time>2021-08-15T09:02:55Z</time>
      </trkpt>
      <trkpt lat="44.00808" lon="4.41813">
        <ele>125.5</ele>
        <time>2021-08-15T09:03:30Z</time>
      </trkpt>
      <trkpt lat="44.00904" lon="4.41884">
        <ele>131.8</ele>
        <time>2021-08-15T09:04:00Z</time>
      </trkpt>
      <trkpt lat="44.00994" lon="4.4195">
        <ele>136.9</ele>
        <time>2021-08-15T09:04:25Z</time>
      </trkpt>
      <trkpt lat="44.01084" lon="4.42007">
        <ele>136.8</ele>
        <time>2021-08-15T09:05:16Z</time>
      </trkpt>
      <trkpt lat="44.01153" lon="4.41925">
        <ele>131.4</ele>
        <time>2021-08-15T09:06:15Z</time>
      </trkpt>
      <trkpt lat="44.01228" lon="4.4185">
        <ele>120.8</ele>
        <time>2021-08-15T09:13:24Z</time>
      </trkpt>
      <trkpt lat="44.01316" lon="4.41808">
        <ele>121.5</ele>
        <time>2021-08-15T09:14:53Z</time>
      </trkpt>
      <trkpt lat="44.01219" lon="4.41791">
        <ele>122.5</ele>
        <time>2021-08-15T09:15:50Z</time>
      </trkpt>
      <trkpt lat="44.01172" lon="4.41665">
        <ele>122.6</ele>
        <time>2021-08-15T09:16:43Z</time>
      </trkpt>
      <trkpt lat="44.01156" lon="4.41529">
        <ele>122.8</ele>
        <time>2021-08-15T09:17:08Z</time>
      </trkpt>
      <trkpt lat="44.0113" lon="4.41398">
        <ele>123.3</ele>
        <time>2021-08-15T09:18:54Z</time>
      </trkpt>
      <trkpt lat="44.01116" lon="4.41255">
        <ele>122.6</ele>
        <time>2021-08-15T09:19:24Z</time>
      </trkpt>
      <trkpt lat="44.01099" lon="4.41128">
        <ele>122</ele>
        <time>2021-08-15T09:19:49Z</time>
      </trkpt>
      <trkpt lat="44.01074" lon="4.41005">
        <ele>121.9</ele>
        <time>2021-08-15T09:20:09Z</time>
      </trkpt>
      <trkpt lat="44.01051" lon="4.40879">
        <ele>121.1</ele>
        <time>2021-08-15T09:20:29Z</time>
      </trkpt>
      <trkpt lat="44.01035" lon="4.40751">
        <ele>126.1</ele>
        <time>2021-08-15T09:21:06Z</time>
      </trkpt>
      <trkpt lat="44.0101" lon="4.40609">
        <ele>123.3</ele>
        <time>2021-08-15T09:21:31Z</time>
      </trkpt>
      <trkpt lat="44.00907" lon="4.40544">
        <ele>123.1</ele>
        <time>2021-08-15T09:21:51Z</time>
      </trkpt>
      <trkpt lat="44.00782" lon="4.40469">
        <ele>121.6</ele>
        <time>2021-08-15T09:22:06Z</time>
      </trkpt>
      <trkpt lat="44.0065" lon="4.40478">
        <ele>117.6</ele>
        <time>2021-08-15T09:22:21Z</time>
      </trkpt>
      <trkpt lat="44.0056" lon="4.40428">
        <ele>115.4</ele>
        <time>2021-08-15T09:22:31Z</time>
      </trkpt>
      <trkpt lat="44.00436" lon="4.40369">
        <ele>110.8</ele>
        <time>2021-08-15T09:22:46Z</time>
      </trkpt>
      <trkpt lat="44.00373" lon="4.40228">
        <ele>105.4</ele>
        <time>2021-08-15T09:23:01Z</time>
      </trkpt>
      <trkpt lat="44.00362" lon="4.40075">
        <ele>98.6</ele>
        <time>2021-08-15T09:23:16Z</time>
      </trkpt>
      <trkpt lat="44.00349" lon="4.39908">
        <ele>93.8</ele>
        <time>2021-08-15T09:23:31Z</time>
      </trkpt>
      <trkpt lat="44.00348" lon="4.39765">
        <ele>90.9</ele>
        <time>2021-08-15T09:23:46Z</time>
      </trkpt>
      <trkpt lat="44.00301" lon="4.39641">
        <ele>87.7</ele>
        <time>2021-08-15T09:24:06Z</time>
      </trkpt>
      <trkpt lat="44.00254" lon="4.3953">
        <ele>83.5</ele>
        <time>2021-08-15T09:24:21Z</time>
      </trkpt>
      <trkpt lat="44.00231" lon="4.39406">
        <ele>76</ele>
        <time>2021-08-15T09:25:18Z</time>
      </trkpt>
      <trkpt lat="44.00228" lon="4.39267">
        <ele>79</ele>
        <time>2021-08-15T09:25:43Z</time>
      </trkpt>
      <trkpt lat="44.0024" lon="4.3941">
        <ele>70.4</ele>
        <time>2021-08-15T09:30:41Z</time>
      </trkpt>
      <trkpt lat="44.00273" lon="4.3957">
        <ele>68.1</ele>
        <time>2021-08-15T09:31:01Z</time>
      </trkpt>
      <trkpt lat="44.00345" lon="4.39688">
        <ele>66.2</ele>
        <time>2021-08-15T09:31:21Z</time>
      </trkpt>
      <trkpt lat="44.00363" lon="4.3983">
        <ele>64.6</ele>
        <time>2021-08-15T09:31:41Z</time>
      </trkpt>
      <trkpt lat="44.00356" lon="4.39982">
        <ele>63.5</ele>
        <time>2021-08-15T09:31:56Z</time>
      </trkpt>
      <trkpt lat="44.0036" lon="4.40112">
        <ele>66.1</ele>
        <time>2021-08-15T09:32:16Z</time>
      </trkpt>
      <trkpt lat="44.0024" lon="4.40105">
        <ele>65</ele>
        <time>2021-08-15T09:32:41Z</time>
      </trkpt>
      <trkpt lat="44.00149" lon="4.40041">
        <ele>65.9</ele>
        <time>2021-08-15T09:32:56Z</time>
      </trkpt>
      <trkpt lat="44.00057" lon="4.39967">
        <ele>65.7</ele>
        <time>2021-08-15T09:33:11Z</time>
      </trkpt>
      <trkpt lat="43.99986" lon="4.3986">
        <ele>66</ele>
        <time>2021-08-15T09:33:26Z</time>
      </trkpt>
      <trkpt lat="43.99941" lon="4.39722">
        <ele>67.8</ele>
        <time>2021-08-15T09:33:46Z</time>
      </trkpt>
      <trkpt lat="43.99867" lon="4.3958">
        <ele>69.7</ele>
        <time>2021-08-15T09:34:06Z</time>
      </trkpt>
      <trkpt lat="43.99799" lon="4.39473">
        <ele>70.5</ele>
        <time>2021-08-15T09:34:21Z</time>
      </trkpt>
      <trkpt lat="43.99714" lon="4.39376">
        <ele>72.6</ele>
        <time>2021-08-15T09:34:45Z</time>
      </trkpt>
      <trkpt lat="43.99607" lon="4.39309">
        <ele>73.5</ele>
        <time>2021-08-15T09:35:05Z</time>
      </trkpt>
      <trkpt lat="43.99497" lon="4.39274">
        <ele>71.7</ele>
        <time>2021-08-15T09:35:25Z</time>
      </trkpt>
      <trkpt lat="43.99403" lon="4.39219">
        <ele>72.5</ele>
        <time>2021-08-15T09:35:45Z</time>
      </trkpt>
      <trkpt lat="43.99337" lon="4.39121">
        <ele>72.1</ele>
        <time>2021-08-15T09:36:05Z</time>
      </trkpt>
      <trkpt lat="43.99285" lon="4.39013">
        <ele>75.1</ele>
        <time>2021-08-15T09:36:25Z</time>
      </trkpt>
      <trkpt lat="43.99231" lon="4.38903">
        <ele>75.5</ele>
        <time>2021-08-15T09:36:50Z</time>
      </trkpt>
      <trkpt lat="43.99178" lon="4.38789">
        <ele>76.2</ele>
        <time>2021-08-15T09:37:15Z</time>
      </trkpt>
      <trkpt lat="43.99124" lon="4.3868">
        <ele>78.9</ele>
        <time>2021-08-15T09:37:40Z</time>
      </trkpt>
      <trkpt lat="43.99061" lon="4.38569">
        <ele>81</ele>
        <time>2021-08-15T09:38:10Z</time>
      </trkpt>
      <trkpt lat="43.98979" lon="4.38489">
        <ele>83.6</ele>
        <time>2021-08-15T09:39:21Z</time>
      </trkpt>
      <trkpt lat="43.9889" lon="4.38431">
        <ele>83.6</ele>
        <time>2021-08-15T09:39:51Z</time>
      </trkpt>
      <trkpt lat="43.98827" lon="4.38331">
        <ele>84.2</ele>
        <time>2021-08-15T09:40:16Z</time>
      </trkpt>
      <trkpt lat="43.98801" lon="4.38193">
        <ele>87.7</ele>
        <time>2021-08-15T09:40:46Z</time>
      </trkpt>
      <trkpt lat="43.9879" lon="4.3806">
        <ele>98.6</ele>
        <time>2021-08-15T09:41:21Z</time>
      </trkpt>
      <trkpt lat="43.98762" lon="4.37936">
        <ele>100.2</ele>
        <time>2021-08-15T09:42:21Z</time>
      </trkpt>
      <trkpt lat="43.98711" lon="4.37817">
        <ele>102</ele>
        <time>2021-08-15T09:42:51Z</time>
      </trkpt>
      <trkpt lat="43.98638" lon="4.37704">
        <ele>103.6</ele>
        <time>2021-08-15T09:43:21Z</time>
      </trkpt>
      <trkpt lat="43.98569" lon="4.37612">
        <ele>107</ele>
        <time>2021-08-15T09:43:46Z</time>
      </trkpt>
      <trkpt lat="43.98505" lon="4.37514">
        <ele>110</ele>
        <time>2021-08-15T09:44:11Z</time>
      </trkpt>
      <trkpt lat="43.98437" lon="4.37424">
        <ele>113.1</ele>
        <time>2021-08-15T09:44:36Z</time>
      </trkpt>
      <trkpt lat="43.98372" lon="4.37313">
        <ele>109</ele>
        <time>2021-08-15T09:45:06Z</time>
      </trkpt>
      <trkpt lat="43.98327" lon="4.3719">
        <ele>120.2</ele>
        <time>2021-08-15T09:45:36Z</time>
      </trkpt>
      <trkpt lat="43.98305" lon="4.37066">
        <ele>120.9</ele>
        <time>2021-08-15T09:48:35Z</time>
      </trkpt>
      <trkpt lat="43.9825" lon="4.36939">
        <ele>121.3</ele>
        <time>2021-08-15T09:49:00Z</time>
      </trkpt>
      <trkpt lat="43.98205" lon="4.36825">
        <ele>124.3</ele>
        <time>2021-08-15T09:49:15Z</time>
      </trkpt>
      <trkpt lat="43.98137" lon="4.36687">
        <ele>120.2</ele>
        <time>2021-08-15T09:49:30Z</time>
      </trkpt>
      <trkpt lat="43.98058" lon="4.36549">
        <ele>114.2</ele>
        <time>2021-08-15T09:49:45Z</time>
      </trkpt>
      <trkpt lat="43.97977" lon="4.36403">
        <ele>110.4</ele>
        <time>2021-08-15T09:50:00Z</time>
      </trkpt>
      <trkpt lat="43.97894" lon="4.3625">
        <ele>104.3</ele>
        <time>2021-08-15T09:50:15Z</time>
      </trkpt>
      <trkpt lat="43.97817" lon="4.36106">
        <ele>97.2</ele>
        <time>2021-08-15T09:50:30Z</time>
      </trkpt>
      <trkpt lat="43.97744" lon="4.35963">
        <ele>91.5</ele>
        <time>2021-08-15T09:50:45Z</time>
      </trkpt>
      <trkpt lat="43.9768" lon="4.35828">
        <ele>85.3</ele>
        <time>2021-08-15T09:51:00Z</time>
      </trkpt>
      <trkpt lat="43.97618" lon="4.35691">
        <ele>79</ele>
        <time>2021-08-15T09:51:15Z</time>
      </trkpt>
      <trkpt lat="43.9756" lon="4.3554">
        <ele>72.7</ele>
        <time>2021-08-15T09:51:30Z</time>
      </trkpt>
      <trkpt lat="43.97504" lon="4.35395">
        <ele>68.1</ele>
        <time>2021-08-15T09:51:45Z</time>
      </trkpt>
      <trkpt lat="43.97445" lon="4.35277">
        <ele>66.4</ele>
        <time>2021-08-15T09:52:34Z</time>
      </trkpt>
      <trkpt lat="43.97381" lon="4.35147">
        <ele>66.4</ele>
        <time>2021-08-15T09:52:59Z</time>
      </trkpt>
      <trkpt lat="43.9734" lon="4.35019">
        <ele>65.6</ele>
        <time>2021-08-15T09:53:19Z</time>
      </trkpt>
      <trkpt lat="43.97306" lon="4.34862">
        <ele>64.1</ele>
        <time>2021-08-15T09:53:39Z</time>
      </trkpt>
      <trkpt lat="43.97259" lon="4.34706">
        <ele>64.9</ele>
        <time>2021-08-15T09:53:59Z</time>
      </trkpt>
      <trkpt lat="43.97219" lon="4.34577">
        <ele>66.9</ele>
        <time>2021-08-15T09:54:19Z</time>
      </trkpt>
      <trkpt lat="43.97172" lon="4.34437">
        <ele>70.6</ele>
        <time>2021-08-15T09:54:44Z</time>
      </trkpt>
      <trkpt lat="43.97129" lon="4.34289">
        <ele>69.9</ele>
        <time>2021-08-15T09:56:41Z</time>
      </trkpt>
      <trkpt lat="43.97081" lon="4.34139">
        <ele>67.9</ele>
        <time>2021-08-15T09:57:01Z</time>
      </trkpt>
      <trkpt lat="43.97046" lon="4.34021">
        <ele>67.6</ele>
        <time>2021-08-15T09:57:16Z</time>
      </trkpt>
      <trkpt lat="43.97008" lon="4.33904">
        <ele>68.4</ele>
        <time>2021-08-15T09:57:36Z</time>
      </trkpt>
      <trkpt lat="43.96973" lon="4.33756">
        <ele>67</ele>
        <time>2021-08-15T09:58:01Z</time>
      </trkpt>
      <trkpt lat="43.96946" lon="4.33599">
        <ele>68.8</ele>
        <time>2021-08-15T09:58:26Z</time>
      </trkpt>
      <trkpt lat="43.96931" lon="4.33462">
        <ele>68</ele>
        <time>2021-08-15T09:58:46Z</time>
      </trkpt>
      <trkpt lat="43.97003" lon="4.33383">
        <ele>68</ele>
        <time>2021-08-15T09:59:11Z</time>
      </trkpt>
      <trkpt lat="43.97113" lon="4.33368">
        <ele>73.5</ele>
        <time>2021-08-15T09:59:31Z</time>
      </trkpt>
      <trkpt lat="43.97204" lon="4.33351">
        <ele>77.3</ele>
        <time>2021-08-15T09:59:46Z</time>
      </trkpt>
      <trkpt lat="43.97312" lon="4.33323">
        <ele>80.7</ele>
        <time>2021-08-15T10:00:06Z</time>
      </trkpt>
      <trkpt lat="43.97422" lon="4.33301">
        <ele>79.7</ele>
        <time>2021-08-15T10:00:26Z</time>
      </trkpt>
      <trkpt lat="43.97536" lon="4.33316">
        <ele>73.2</ele>
        <time>2021-08-15T10:00:46Z</time>
      </trkpt>
      <trkpt lat="43.97637" lon="4.33319">
        <ele>74</ele>
        <time>2021-08-15T10:01:06Z</time>
      </trkpt>
      <trkpt lat="43.9773" lon="4.33337">
        <ele>71.5</ele>
        <time>2021-08-15T10:01:26Z</time>
      </trkpt>
      <trkpt lat="43.97823" lon="4.33305">
        <ele>77.7</ele>
        <time>2021-08-15T10:01:46Z</time>
      </trkpt>
      <trkpt lat="43.97907" lon="4.33251">
        <ele>77.2</ele>
        <time>2021-08-15T10:02:06Z</time>
      </trkpt>
      <trkpt lat="43.98009" lon="4.33239">
        <ele>76.6</ele>
        <time>2021-08-15T10:02:58Z</time>
      </trkpt>
      <trkpt lat="43.98107" lon="4.33242">
        <ele>72.9</ele>
        <time>2021-08-15T10:03:18Z</time>
      </trkpt>
      <trkpt lat="43.98217" lon="4.33249">
        <ele>76</ele>
        <time>2021-08-15T10:03:43Z</time>
      </trkpt>
      <trkpt lat="43.98298" lon="4.33324">
        <ele>73.8</ele>
        <time>2021-08-15T10:04:29Z</time>
      </trkpt>
      <trkpt lat="43.98388" lon="4.3329">
        <ele>81.8</ele>
        <time>2021-08-15T12:51:41Z</time>
      </trkpt>
      <trkpt lat="43.98489" lon="4.33328">
        <ele>80</ele>
        <time>2021-08-15T12:52:06Z</time>
      </trkpt>
      <trkpt lat="43.98585" lon="4.33357">
        <ele>84.4</ele>
        <time>2021-08-15T12:52:26Z</time>
      </trkpt>
      <trkpt lat="43.98692" lon="4.33399">
        <ele>85</ele>
        <time>2021-08-15T12:52:51Z</time>
      </trkpt>
      <trkpt lat="43.98797" lon="4.33425">
        <ele>85.8</ele>
        <time>2021-08-15T12:53:16Z</time>
      </trkpt>
      <trkpt lat="43.98899" lon="4.33418">
        <ele>84.1</ele>
        <time>2021-08-15T12:53:36Z</time>
      </trkpt>
      <trkpt lat="43.99004" lon="4.33423">
        <ele>84.8</ele>
        <time>2021-08-15T12:53:56Z</time>
      </trkpt>
      <trkpt lat="43.99096" lon="4.33421">
        <ele>89.3</ele>
        <time>2021-08-15T12:54:16Z</time>
      </trkpt>
      <trkpt lat="43.9919" lon="4.33427">
        <ele>86.7</ele>
        <time>2021-08-15T12:54:36Z</time>
      </trkpt>
      <trkpt lat="43.99209" lon="4.3328">
        <ele>89.8</ele>
        <time>2021-08-15T12:55:01Z</time>
      </trkpt>
      <trkpt lat="43.99232" lon="4.33125">
        <ele>88.5</ele>
        <time>2021-08-15T12:55:21Z</time>
      </trkpt>
      <trkpt lat="43.99235" lon="4.32967">
        <ele>83.9</ele>
        <time>2021-08-15T12:55:41Z</time>
      </trkpt>
      <trkpt lat="43.99228" lon="4.32819">
        <ele>83.3</ele>
        <time>2021-08-15T12:56:06Z</time>
      </trkpt>
      <trkpt lat="43.9922" lon="4.32674">
        <ele>85.4</ele>
        <time>2021-08-15T12:56:31Z</time>
      </trkpt>
      <trkpt lat="43.99221" lon="4.32548">
        <ele>88.1</ele>
        <time>2021-08-15T12:56:51Z</time>
      </trkpt>
      <trkpt lat="43.99219" lon="4.32398">
        <ele>94.3</ele>
        <time>2021-08-15T12:57:16Z</time>
      </trkpt>
      <trkpt lat="43.99218" lon="4.32241">
        <ele>97.2</ele>
        <time>2021-08-15T12:57:41Z</time>
      </trkpt>
      <trkpt lat="43.99221" lon="4.32108">
        <ele>99.7</ele>
        <time>2021-08-15T12:58:06Z</time>
      </trkpt>
      <trkpt lat="43.99207" lon="4.31955">
        <ele>97.6</ele>
        <time>2021-08-15T12:58:31Z</time>
      </trkpt>
      <trkpt lat="43.99182" lon="4.31817">
        <ele>100.3</ele>
        <time>2021-08-15T12:59:01Z</time>
      </trkpt>
      <trkpt lat="43.99161" lon="4.31678">
        <ele>100.7</ele>
        <time>2021-08-15T12:59:31Z</time>
      </trkpt>
      <trkpt lat="43.99154" lon="4.31544">
        <ele>102.2</ele>
        <time>2021-08-15T12:59:56Z</time>
      </trkpt>
      <trkpt lat="43.9914" lon="4.31399">
        <ele>100.8</ele>
        <time>2021-08-15T13:00:21Z</time>
      </trkpt>
      <trkpt lat="43.99133" lon="4.31265">
        <ele>99</ele>
        <time>2021-08-15T13:00:36Z</time>
      </trkpt>
      <trkpt lat="43.9912" lon="4.31134">
        <ele>98.6</ele>
        <time>2021-08-15T13:00:51Z</time>
      </trkpt>
      <trkpt lat="43.99118" lon="4.30993">
        <ele>99</ele>
        <time>2021-08-15T13:01:11Z</time>
      </trkpt>
      <trkpt lat="43.99111" lon="4.30852">
        <ele>97.4</ele>
        <time>2021-08-15T13:01:31Z</time>
      </trkpt>
      <trkpt lat="43.99106" lon="4.30699">
        <ele>101.2</ele>
        <time>2021-08-15T13:01:51Z</time>
      </trkpt>
      <trkpt lat="43.99099" lon="4.30573">
        <ele>102.1</ele>
        <time>2021-08-15T13:02:11Z</time>
      </trkpt>
      <trkpt lat="43.9909" lon="4.30434">
        <ele>101.9</ele>
        <time>2021-08-15T13:02:31Z</time>
      </trkpt>
      <trkpt lat="43.99081" lon="4.30296">
        <ele>101.2</ele>
        <time>2021-08-15T13:02:51Z</time>
      </trkpt>
      <trkpt lat="43.99069" lon="4.30157">
        <ele>101.6</ele>
        <time>2021-08-15T13:03:11Z</time>
      </trkpt>
      <trkpt lat="43.99063" lon="4.30004">
        <ele>100</ele>
        <time>2021-08-15T13:04:30Z</time>
      </trkpt>
      <trkpt lat="43.99055" lon="4.29854">
        <ele>99.4</ele>
        <time>2021-08-15T13:04:50Z</time>
      </trkpt>
      <trkpt lat="43.99042" lon="4.29718">
        <ele>103.9</ele>
        <time>2021-08-15T13:05:10Z</time>
      </trkpt>
      <trkpt lat="43.99028" lon="4.29557">
        <ele>102</ele>
        <time>2021-08-15T13:05:30Z</time>
      </trkpt>
      <trkpt lat="43.99016" lon="4.29406">
        <ele>98</ele>
        <time>2021-08-15T13:05:50Z</time>
      </trkpt>
      <trkpt lat="43.99006" lon="4.29253">
        <ele>96.7</ele>
        <time>2021-08-15T13:06:10Z</time>
      </trkpt>
      <trkpt lat="43.98992" lon="4.29095">
        <ele>100.8</ele>
        <time>2021-08-15T13:06:30Z</time>
      </trkpt>
      <trkpt lat="43.98965" lon="4.28938">
        <ele>99.4</ele>
        <time>2021-08-15T13:06:50Z</time>
      </trkpt>
      <trkpt lat="43.98926" lon="4.28797">
        <ele>96</ele>
        <time>2021-08-15T13:07:05Z</time>
      </trkpt>
      <trkpt lat="43.98882" lon="4.28635">
        <ele>95.4</ele>
        <time>2021-08-15T13:07:20Z</time>
      </trkpt>
      <trkpt lat="43.98849" lon="4.28507">
        <ele>94.7</ele>
        <time>2021-08-15T13:07:35Z</time>
      </trkpt>
      <trkpt lat="43.98818" lon="4.28372">
        <ele>93</ele>
        <time>2021-08-15T13:07:50Z</time>
      </trkpt>
      <trkpt lat="43.98785" lon="4.2822">
        <ele>92.4</ele>
        <time>2021-08-15T13:08:05Z</time>
      </trkpt>
      <trkpt lat="43.98756" lon="4.28082">
        <ele>93.5</ele>
        <time>2021-08-15T13:08:20Z</time>
      </trkpt>
      <trkpt lat="43.98723" lon="4.27923">
        <ele>96.4</ele>
        <time>2021-08-15T13:08:40Z</time>
      </trkpt>
      <trkpt lat="43.98689" lon="4.27771">
        <ele>98</ele>
        <time>2021-08-15T13:09:00Z</time>
      </trkpt>
      <trkpt lat="43.9866" lon="4.27639">
        <ele>95.4</ele>
        <time>2021-08-15T13:09:20Z</time>
      </trkpt>
      <trkpt lat="43.98631" lon="4.27494">
        <ele>91.8</ele>
        <time>2021-08-15T13:09:45Z</time>
      </trkpt>
      <trkpt lat="43.98599" lon="4.27338">
        <ele>93.3</ele>
        <time>2021-08-15T13:10:10Z</time>
      </trkpt>
      <trkpt lat="43.98571" lon="4.27211">
        <ele>93.4</ele>
        <time>2021-08-15T13:10:25Z</time>
      </trkpt>
      <trkpt lat="43.98532" lon="4.27069">
        <ele>90.8</ele>
        <time>2021-08-15T13:10:40Z</time>
      </trkpt>
      <trkpt lat="43.9848" lon="4.26929">
        <ele>86.2</ele>
        <time>2021-08-15T13:10:55Z</time>
      </trkpt>
      <trkpt lat="43.98433" lon="4.268">
        <ele>84.8</ele>
        <time>2021-08-15T13:11:10Z</time>
      </trkpt>
      <trkpt lat="43.98398" lon="4.26654">
        <ele>87.2</ele>
        <time>2021-08-15T13:11:30Z</time>
      </trkpt>
      <trkpt lat="43.98366" lon="4.26511">
        <ele>88.2</ele>
        <time>2021-08-15T13:11:50Z</time>
      </trkpt>
      <trkpt lat="43.98339" lon="4.26367">
        <ele>88</ele>
        <time>2021-08-15T13:12:10Z</time>
      </trkpt>
      <trkpt lat="43.98309" lon="4.26235">
        <ele>85.4</ele>
        <time>2021-08-15T13:12:30Z</time>
      </trkpt>
      <trkpt lat="43.98272" lon="4.26092">
        <ele>84.2</ele>
        <time>2021-08-15T13:12:50Z</time>
      </trkpt>
      <trkpt lat="43.98253" lon="4.25932">
        <ele>79.8</ele>
        <time>2021-08-15T13:13:10Z</time>
      </trkpt>
      <trkpt lat="43.98242" lon="4.258">
        <ele>77.6</ele>
        <time>2021-08-15T13:13:25Z</time>
      </trkpt>
      <trkpt lat="43.98232" lon="4.25635">
        <ele>79.4</ele>
        <time>2021-08-15T13:13:45Z</time>
      </trkpt>
      <trkpt lat="43.98221" lon="4.25478">
        <ele>79.9</ele>
        <time>2021-08-15T13:14:05Z</time>
      </trkpt>
      <trkpt lat="43.98226" lon="4.25333">
        <ele>81.8</ele>
        <time>2021-08-15T13:14:25Z</time>
      </trkpt>
      <trkpt lat="43.98264" lon="4.25191">
        <ele>81</ele>
        <time>2021-08-15T13:14:45Z</time>
      </trkpt>
      <trkpt lat="43.98307" lon="4.25057">
        <ele>83.2</ele>
        <time>2021-08-15T13:15:05Z</time>
      </trkpt>
      <trkpt lat="43.9834" lon="4.24916">
        <ele>83.7</ele>
        <time>2021-08-15T13:15:30Z</time>
      </trkpt>
      <trkpt lat="43.98361" lon="4.24771">
        <ele>85.1</ele>
        <time>2021-08-15T13:15:55Z</time>
      </trkpt>
      <trkpt lat="43.98381" lon="4.24619">
        <ele>86.3</ele>
        <time>2021-08-15T13:16:20Z</time>
      </trkpt>
      <trkpt lat="43.98381" lon="4.24484">
        <ele>87.4</ele>
        <time>2021-08-15T13:16:45Z</time>
      </trkpt>
      <trkpt lat="43.98369" lon="4.24352">
        <ele>92.6</ele>
        <time>2021-08-15T13:17:05Z</time>
      </trkpt>
      <trkpt lat="43.98355" lon="4.24212">
        <ele>89.6</ele>
        <time>2021-08-15T13:17:25Z</time>
      </trkpt>
      <trkpt lat="43.98321" lon="4.24059">
        <ele>85.6</ele>
        <time>2021-08-15T13:17:45Z</time>
      </trkpt>
      <trkpt lat="43.98282" lon="4.23899">
        <ele>82.8</ele>
        <time>2021-08-15T13:18:05Z</time>
      </trkpt>
      <trkpt lat="43.98265" lon="4.2377">
        <ele>83.5</ele>
        <time>2021-08-15T13:18:20Z</time>
      </trkpt>
      <trkpt lat="43.98231" lon="4.23616">
        <ele>87.7</ele>
        <time>2021-08-15T13:18:40Z</time>
      </trkpt>
      <trkpt lat="43.98187" lon="4.23484">
        <ele>88</ele>
        <time>2021-08-15T13:19:00Z</time>
      </trkpt>
      <trkpt lat="43.9814" lon="4.23349">
        <ele>93.3</ele>
        <time>2021-08-15T13:19:20Z</time>
      </trkpt>
      <trkpt lat="43.98098" lon="4.23212">
        <ele>97.4</ele>
        <time>2021-08-15T13:19:40Z</time>
      </trkpt>
      <trkpt lat="43.98048" lon="4.23064">
        <ele>98.3</ele>
        <time>2021-08-15T13:20:00Z</time>
      </trkpt>
      <trkpt lat="43.98003" lon="4.22927">
        <ele>98.5</ele>
        <time>2021-08-15T13:20:20Z</time>
      </trkpt>
      <trkpt lat="43.97994" lon="4.22796">
        <ele>99.1</ele>
        <time>2021-08-15T13:20:40Z</time>
      </trkpt>
      <trkpt lat="43.97968" lon="4.22661">
        <ele>88.8</ele>
        <time>2021-08-15T13:22:04Z</time>
      </trkpt>
      <trkpt lat="43.97895" lon="4.22565">
        <ele>83</ele>
        <time>2021-08-15T13:22:39Z</time>
      </trkpt>
      <trkpt lat="43.97808" lon="4.22511">
        <ele>82.5</ele>
        <time>2021-08-15T13:23:04Z</time>
      </trkpt>
      <trkpt lat="43.97708" lon="4.2245">
        <ele>79.4</ele>
        <time>2021-08-15T13:23:29Z</time>
      </trkpt>
      <trkpt lat="43.97601" lon="4.22385">
        <ele>73.7</ele>
        <time>2021-08-15T13:23:49Z</time>
      </trkpt>
      <trkpt lat="43.97524" lon="4.22307">
        <ele>72.8</ele>
        <time>2021-08-15T13:24:09Z</time>
      </trkpt>
      <trkpt lat="43.97542" lon="4.2218">
        <ele>72.3</ele>
        <time>2021-08-15T13:24:39Z</time>
      </trkpt>
      <trkpt lat="43.97549" lon="4.22046">
        <ele>72</ele>
        <time>2021-08-15T13:24:59Z</time>
      </trkpt>
      <trkpt lat="43.97528" lon="4.2192">
        <ele>74.1</ele>
        <time>2021-08-15T13:25:19Z</time>
      </trkpt>
      <trkpt lat="43.97531" lon="4.21779">
        <ele>73</ele>
        <time>2021-08-15T13:25:39Z</time>
      </trkpt>
      <trkpt lat="43.97565" lon="4.21649">
        <ele>73.1</ele>
        <time>2021-08-15T13:25:59Z</time>
      </trkpt>
      <trkpt lat="43.97629" lon="4.21557">
        <ele>72.8</ele>
        <time>2021-08-15T13:26:19Z</time>
      </trkpt>
      <trkpt lat="43.97644" lon="4.21428">
        <ele>69.3</ele>
        <time>2021-08-15T13:26:44Z</time>
      </trkpt>
      <trkpt lat="43.97645" lon="4.21301">
        <ele>69</ele>
        <time>2021-08-15T13:27:04Z</time>
      </trkpt>
      <trkpt lat="43.97657" lon="4.21165">
        <ele>70.5</ele>
        <time>2021-08-15T13:27:24Z</time>
      </trkpt>
      <trkpt lat="43.97695" lon="4.21045">
        <ele>73.2</ele>
        <time>2021-08-15T13:27:49Z</time>
      </trkpt>
      <trkpt lat="43.97762" lon="4.20936">
        <ele>73.1</ele>
        <time>2021-08-15T13:28:14Z</time>
      </trkpt>
      <trkpt lat="43.97819" lon="4.2083">
        <ele>68</ele>
        <time>2021-08-15T13:36:30Z</time>
      </trkpt>
      <trkpt lat="43.97889" lon="4.2071">
        <ele>71</ele>
        <time>2021-08-15T13:36:50Z</time>
      </trkpt>
      <trkpt lat="43.9795" lon="4.20604">
        <ele>73.2</ele>
        <time>2021-08-15T13:37:05Z</time>
      </trkpt>
      <trkpt lat="43.98011" lon="4.20496">
        <ele>73</ele>
        <time>2021-08-15T13:37:20Z</time>
      </trkpt>
      <trkpt lat="43.98068" lon="4.20396">
        <ele>75.3</ele>
        <time>2021-08-15T13:37:35Z</time>
      </trkpt>
      <trkpt lat="43.98126" lon="4.20295">
        <ele>74.6</ele>
        <time>2021-08-15T13:37:50Z</time>
      </trkpt>
      <trkpt lat="43.98182" lon="4.20192">
        <ele>75.8</ele>
        <time>2021-08-15T13:38:05Z</time>
      </trkpt>
      <trkpt lat="43.98239" lon="4.20091">
        <ele>76</ele>
        <time>2021-08-15T13:38:20Z</time>
      </trkpt>
      <trkpt lat="43.98297" lon="4.1999">
        <ele>74.9</ele>
        <time>2021-08-15T13:38:35Z</time>
      </trkpt>
      <trkpt lat="43.98359" lon="4.19875">
        <ele>74.7</ele>
        <time>2021-08-15T13:38:55Z</time>
      </trkpt>
      <trkpt lat="43.98422" lon="4.19781">
        <ele>76</ele>
        <time>2021-08-15T13:39:10Z</time>
      </trkpt>
      <trkpt lat="43.98491" lon="4.19649">
        <ele>78.9</ele>
        <time>2021-08-15T13:39:30Z</time>
      </trkpt>
      <trkpt lat="43.98564" lon="4.1952">
        <ele>81.4</ele>
        <time>2021-08-15T13:39:50Z</time>
      </trkpt>
      <trkpt lat="43.98621" lon="4.19419">
        <ele>82.6</ele>
        <time>2021-08-15T13:40:05Z</time>
      </trkpt>
      <trkpt lat="43.98676" lon="4.19314">
        <ele>83.5</ele>
        <time>2021-08-15T13:40:20Z</time>
      </trkpt>
      <trkpt lat="43.98735" lon="4.19214">
        <ele>84.8</ele>
        <time>2021-08-15T13:40:35Z</time>
      </trkpt>
      <trkpt lat="43.9882" lon="4.19113">
        <ele>84.6</ele>
        <time>2021-08-15T13:40:55Z</time>
      </trkpt>
      <trkpt lat="43.98901" lon="4.19053">
        <ele>86.3</ele>
        <time>2021-08-15T13:41:10Z</time>
      </trkpt>
      <trkpt lat="43.99002" lon="4.18975">
        <ele>84.5</ele>
        <time>2021-08-15T13:41:30Z</time>
      </trkpt>
      <trkpt lat="43.99097" lon="4.18906">
        <ele>82.2</ele>
        <time>2021-08-15T13:41:50Z</time>
      </trkpt>
      <trkpt lat="43.99204" lon="4.18846">
        <ele>85.5</ele>
        <time>2021-08-15T13:42:10Z</time>
      </trkpt>
      <trkpt lat="43.99286" lon="4.18797">
        <ele>86.1</ele>
        <time>2021-08-15T13:42:25Z</time>
      </trkpt>
      <trkpt lat="43.99389" lon="4.18733">
        <ele>87.8</ele>
        <time>2021-08-15T13:42:45Z</time>
      </trkpt>
      <trkpt lat="43.9949" lon="4.18687">
        <ele>88.2</ele>
        <time>2021-08-15T13:43:05Z</time>
      </trkpt>
      <trkpt lat="43.99578" lon="4.18627">
        <ele>88.6</ele>
        <time>2021-08-15T13:43:25Z</time>
      </trkpt>
      <trkpt lat="43.99663" lon="4.18542">
        <ele>86</ele>
        <time>2021-08-15T13:44:37Z</time>
      </trkpt>
      <trkpt lat="43.9975" lon="4.18441">
        <ele>83</ele>
        <time>2021-08-15T13:44:57Z</time>
      </trkpt>
      <trkpt lat="43.99818" lon="4.18321">
        <ele>77.8</ele>
        <time>2021-08-15T13:45:17Z</time>
      </trkpt>
      <trkpt lat="43.99879" lon="4.18195">
        <ele>75.9</ele>
        <time>2021-08-15T13:45:37Z</time>
      </trkpt>
      <trkpt lat="43.99942" lon="4.18077">
        <ele>76.1</ele>
        <time>2021-08-15T13:45:57Z</time>
      </trkpt>
      <trkpt lat="44.00019" lon="4.18">
        <ele>78.7</ele>
        <time>2021-08-15T13:46:17Z</time>
      </trkpt>
      <trkpt lat="44.00109" lon="4.17927">
        <ele>80</ele>
        <time>2021-08-15T13:46:37Z</time>
      </trkpt>
      <trkpt lat="44.00198" lon="4.17849">
        <ele>81</ele>
        <time>2021-08-15T13:46:57Z</time>
      </trkpt>
      <trkpt lat="44.00271" lon="4.17779">
        <ele>82.9</ele>
        <time>2021-08-15T13:47:12Z</time>
      </trkpt>
      <trkpt lat="44.00348" lon="4.1771">
        <ele>85</ele>
        <time>2021-08-15T13:47:27Z</time>
      </trkpt>
      <trkpt lat="44.00445" lon="4.17637">
        <ele>84.2</ele>
        <time>2021-08-15T13:47:47Z</time>
      </trkpt>
      <trkpt lat="44.00542" lon="4.17565">
        <ele>79.8</ele>
        <time>2021-08-15T13:48:07Z</time>
      </trkpt>
      <trkpt lat="44.00623" lon="4.17502">
        <ele>79.6</ele>
        <time>2021-08-15T13:48:22Z</time>
      </trkpt>
      <trkpt lat="44.00698" lon="4.17435">
        <ele>77.7</ele>
        <time>2021-08-15T13:48:37Z</time>
      </trkpt>
      <trkpt lat="44.00776" lon="4.17368">
        <ele>76.1</ele>
        <time>2021-08-15T13:48:52Z</time>
      </trkpt>
      <trkpt lat="44.00873" lon="4.17286">
        <ele>76.1</ele>
        <time>2021-08-15T13:49:12Z</time>
      </trkpt>
      <trkpt lat="44.00962" lon="4.17201">
        <ele>77.7</ele>
        <time>2021-08-15T13:49:32Z</time>
      </trkpt>
      <trkpt lat="44.0104" lon="4.17091">
        <ele>78.6</ele>
        <time>2021-08-15T13:49:52Z</time>
      </trkpt>
      <trkpt lat="44.01094" lon="4.16973">
        <ele>82.4</ele>
        <time>2021-08-15T13:50:12Z</time>
      </trkpt>
      <trkpt lat="44.01124" lon="4.16843">
        <ele>87.6</ele>
        <time>2021-08-15T13:50:42Z</time>
      </trkpt>
      <trkpt lat="44.01131" lon="4.16709">
        <ele>94.3</ele>
        <time>2021-08-15T13:51:12Z</time>
      </trkpt>
      <trkpt lat="44.01125" lon="4.16573">
        <ele>99.3</ele>
        <time>2021-08-15T13:51:42Z</time>
      </trkpt>
      <trkpt lat="44.01119" lon="4.16434">
        <ele>98.8</ele>
        <time>2021-08-15T13:52:12Z</time>
      </trkpt>
      <trkpt lat="44.01141" lon="4.16313">
        <ele>97.9</ele>
        <time>2021-08-15T13:52:37Z</time>
      </trkpt>
      <trkpt lat="44.01192" lon="4.16201">
        <ele>97.5</ele>
        <time>2021-08-15T13:52:57Z</time>
      </trkpt>
      <trkpt lat="44.01282" lon="4.16104">
        <ele>96.2</ele>
        <time>2021-08-15T13:53:17Z</time>
      </trkpt>
      <trkpt lat="44.0136" lon="4.16023">
        <ele>95.3</ele>
        <time>2021-08-15T13:53:37Z</time>
      </trkpt>
      <trkpt lat="44.01441" lon="4.1593">
        <ele>93.1</ele>
        <time>2021-08-15T13:53:57Z</time>
      </trkpt>
      <trkpt lat="44.01529" lon="4.1585">
        <ele>88.5</ele>
        <time>2021-08-15T13:54:17Z</time>
      </trkpt>
      <trkpt lat="44.01615" lon="4.15775">
        <ele>85.8</ele>
        <time>2021-08-15T13:54:37Z</time>
      </trkpt>
      <trkpt lat="44.01674" lon="4.15684">
        <ele>95.7</ele>
        <time>2021-08-15T14:11:37Z</time>
      </trkpt>
      <trkpt lat="44.01612" lon="4.15562">
        <ele>96.2</ele>
        <time>2021-08-15T14:12:07Z</time>
      </trkpt>
      <trkpt lat="44.01533" lon="4.15477">
        <ele>96.5</ele>
        <time>2021-08-15T14:12:59Z</time>
      </trkpt>
      <trkpt lat="44.01473" lon="4.15379">
        <ele>93.5</ele>
        <time>2021-08-15T14:13:19Z</time>
      </trkpt>
      <trkpt lat="44.01413" lon="4.15268">
        <ele>88.8</ele>
        <time>2021-08-15T14:13:44Z</time>
      </trkpt>
      <trkpt lat="44.01353" lon="4.15164">
        <ele>93.5</ele>
        <time>2021-08-15T14:14:04Z</time>
      </trkpt>
      <trkpt lat="44.01277" lon="4.15079">
        <ele>93.8</ele>
        <time>2021-08-15T14:14:24Z</time>
      </trkpt>
      <trkpt lat="44.01209" lon="4.14975">
        <ele>95.7</ele>
        <time>2021-08-15T14:14:44Z</time>
      </trkpt>
      <trkpt lat="44.01156" lon="4.14865">
        <ele>95.4</ele>
        <time>2021-08-15T14:15:04Z</time>
      </trkpt>
      <trkpt lat="44.01108" lon="4.14743">
        <ele>96.7</ele>
        <time>2021-08-15T14:15:24Z</time>
      </trkpt>
      <trkpt lat="44.01068" lon="4.14606">
        <ele>96.8</ele>
        <time>2021-08-15T14:15:49Z</time>
      </trkpt>
      <trkpt lat="44.01041" lon="4.14484">
        <ele>96.7</ele>
        <time>2021-08-15T14:16:09Z</time>
      </trkpt>
      <trkpt lat="44.00996" lon="4.14373">
        <ele>94.2</ele>
        <time>2021-08-15T14:16:29Z</time>
      </trkpt>
      <trkpt lat="44.0094" lon="4.14263">
        <ele>92.7</ele>
        <time>2021-08-15T14:16:49Z</time>
      </trkpt>
      <trkpt lat="44.00878" lon="4.14155">
        <ele>91.9</ele>
        <time>2021-08-15T14:17:09Z</time>
      </trkpt>
      <trkpt lat="44.00818" lon="4.14056">
        <ele>93.4</ele>
        <time>2021-08-15T14:17:29Z</time>
      </trkpt>
      <trkpt lat="44.00769" lon="4.13915">
        <ele>94.1</ele>
        <time>2021-08-15T14:17:54Z</time>
      </trkpt>
      <trkpt lat="44.00702" lon="4.13786">
        <ele>97.7</ele>
        <time>2021-08-15T14:18:19Z</time>
      </trkpt>
      <trkpt lat="44.0064" lon="4.13684">
        <ele>99</ele>
        <time>2021-08-15T14:18:44Z</time>
      </trkpt>
      <trkpt lat="44.00612" lon="4.13557">
        <ele>103.4</ele>
        <time>2021-08-15T14:19:04Z</time>
      </trkpt>
      <trkpt lat="44.00583" lon="4.1343">
        <ele>104.6</ele>
        <time>2021-08-15T14:19:24Z</time>
      </trkpt>
      <trkpt lat="44.0058" lon="4.13295">
        <ele>103.4</ele>
        <time>2021-08-15T14:19:44Z</time>
      </trkpt>
      <trkpt lat="44.00584" lon="4.13161">
        <ele>103</ele>
        <time>2021-08-15T14:20:09Z</time>
      </trkpt>
      <trkpt lat="44.00604" lon="4.1304">
        <ele>101.5</ele>
        <time>2021-08-15T14:32:00Z</time>
      </trkpt>
      <trkpt lat="44.00515" lon="4.12976">
        <ele>104.6</ele>
        <time>2021-08-15T14:36:01Z</time>
      </trkpt>
      <trkpt lat="44.00416" lon="4.12939">
        <ele>108.7</ele>
        <time>2021-08-15T14:36:36Z</time>
      </trkpt>
      <trkpt lat="44.00338" lon="4.12865">
        <ele>112.8</ele>
        <time>2021-08-15T14:37:01Z</time>
      </trkpt>
      <trkpt lat="44.00249" lon="4.12805">
        <ele>111.1</ele>
        <time>2021-08-15T14:37:26Z</time>
      </trkpt>
      <trkpt lat="44.0015" lon="4.12749">
        <ele>114.3</ele>
        <time>2021-08-15T14:37:56Z</time>
      </trkpt>
      <trkpt lat="44.0006" lon="4.12704">
        <ele>112.6</ele>
        <time>2021-08-15T14:38:21Z</time>
      </trkpt>
      <trkpt lat="43.99975" lon="4.12633">
        <ele>114.3</ele>
        <time>2021-08-15T14:38:46Z</time>
      </trkpt>
      <trkpt lat="43.99889" lon="4.12557">
        <ele>118</ele>
        <time>2021-08-15T14:39:16Z</time>
      </trkpt>
      <trkpt lat="43.99828" lon="4.12451">
        <ele>121.9</ele>
        <time>2021-08-15T14:39:46Z</time>
      </trkpt>
      <trkpt lat="43.99811" lon="4.12313">
        <ele>121.9</ele>
        <time>2021-08-15T14:40:06Z</time>
      </trkpt>
      <trkpt lat="43.99786" lon="4.12153">
        <ele>117.7</ele>
        <time>2021-08-15T14:40:26Z</time>
      </trkpt>
      <trkpt lat="43.99753" lon="4.12028">
        <ele>114.4</ele>
        <time>2021-08-15T14:40:46Z</time>
      </trkpt>
      <trkpt lat="43.99733" lon="4.11905">
        <ele>111.7</ele>
        <time>2021-08-15T14:41:11Z</time>
      </trkpt>
      <trkpt lat="43.9968" lon="4.11792">
        <ele>117.3</ele>
        <time>2021-08-15T14:41:51Z</time>
      </trkpt>
      <trkpt lat="43.99575" lon="4.11748">
        <ele>116.7</ele>
        <time>2021-08-15T14:42:21Z</time>
      </trkpt>
      <trkpt lat="43.99483" lon="4.11659">
        <ele>115.9</ele>
        <time>2021-08-15T14:42:46Z</time>
      </trkpt>
      <trkpt lat="43.99407" lon="4.11543">
        <ele>115.3</ele>
        <time>2021-08-15T14:43:11Z</time>
      </trkpt>
      <trkpt lat="43.9934" lon="4.11452">
        <ele>119.5</ele>
        <time>2021-08-15T14:43:36Z</time>
      </trkpt>
      <trkpt lat="43.99251" lon="4.11378">
        <ele>119.5</ele>
        <time>2021-08-15T14:43:56Z</time>
      </trkpt>
      <trkpt lat="43.99171" lon="4.11276">
        <ele>119.5</ele>
        <time>2021-08-15T14:44:21Z</time>
      </trkpt>
      <trkpt lat="43.99106" lon="4.11172">
        <ele>119.9</ele>
        <time>2021-08-15T14:44:51Z</time>
      </trkpt>
      <trkpt lat="43.99052" lon="4.11055">
        <ele>124.7</ele>
        <time>2021-08-15T14:45:31Z</time>
      </trkpt>
      <trkpt lat="43.99028" lon="4.1093">
        <ele>131.3</ele>
        <time>2021-08-15T14:46:16Z</time>
      </trkpt>
      <trkpt lat="43.99024" lon="4.10802">
        <ele>134</ele>
        <time>2021-08-15T14:47:01Z</time>
      </trkpt>
      <trkpt lat="43.99005" lon="4.10659">
        <ele>135.9</ele>
        <time>2021-08-15T14:49:11Z</time>
      </trkpt>
      <trkpt lat="43.98972" lon="4.10538">
        <ele>135.3</ele>
        <time>2021-08-15T14:49:46Z</time>
      </trkpt>
      <trkpt lat="43.98922" lon="4.10429">
        <ele>133.3</ele>
        <time>2021-08-15T14:50:32Z</time>
      </trkpt>
      <trkpt lat="43.98899" lon="4.10298">
        <ele>140.6</ele>
        <time>2021-08-15T14:51:26Z</time>
      </trkpt>
      <trkpt lat="43.98868" lon="4.10171">
        <ele>149.8</ele>
        <time>2021-08-15T14:54:37Z</time>
      </trkpt>
      <trkpt lat="43.98901" lon="4.10046">
        <ele>147.5</ele>
        <time>2021-08-15T14:54:57Z</time>
      </trkpt>
      <trkpt lat="43.98939" lon="4.09931">
        <ele>143.6</ele>
        <time>2021-08-15T14:55:17Z</time>
      </trkpt>
      <trkpt lat="43.98981" lon="4.09803">
        <ele>148.2</ele>
        <time>2021-08-15T14:55:47Z</time>
      </trkpt>
      <trkpt lat="43.99012" lon="4.09647">
        <ele>147.4</ele>
        <time>2021-08-15T14:56:12Z</time>
      </trkpt>
      <trkpt lat="43.99046" lon="4.09497">
        <ele>145.2</ele>
        <time>2021-08-15T14:56:27Z</time>
      </trkpt>
      <trkpt lat="43.99083" lon="4.09332">
        <ele>137.5</ele>
        <time>2021-08-15T14:56:42Z</time>
      </trkpt>
      <trkpt lat="43.99116" lon="4.09179">
        <ele>134.1</ele>
        <time>2021-08-15T14:56:57Z</time>
      </trkpt>
      <trkpt lat="43.99122" lon="4.09015">
        <ele>136.4</ele>
        <time>2021-08-15T14:57:17Z</time>
      </trkpt>
      <trkpt lat="43.99137" lon="4.08858">
        <ele>134.2</ele>
        <time>2021-08-15T14:57:32Z</time>
      </trkpt>
      <trkpt lat="43.99136" lon="4.08669">
        <ele>129.2</ele>
        <time>2021-08-15T14:57:47Z</time>
      </trkpt>
      <trkpt lat="43.99137" lon="4.08539">
        <ele>124</ele>
        <time>2021-08-15T14:57:57Z</time>
      </trkpt>
      <trkpt lat="43.99134" lon="4.08405">
        <ele>118.3</ele>
        <time>2021-08-15T14:58:12Z</time>
      </trkpt>
      <trkpt lat="43.99161" lon="4.08272">
        <ele>118</ele>
        <time>2021-08-15T14:58:27Z</time>
      </trkpt>
      <trkpt lat="43.9918" lon="4.08124">
        <ele>118</ele>
        <time>2021-08-15T14:58:42Z</time>
      </trkpt>
      <trkpt lat="43.99182" lon="4.07991">
        <ele>117.2</ele>
        <time>2021-08-15T14:58:57Z</time>
      </trkpt>
      <trkpt lat="43.99187" lon="4.07842">
        <ele>119.1</ele>
        <time>2021-08-15T14:59:17Z</time>
      </trkpt>
      <trkpt lat="43.99223" lon="4.07683">
        <ele>117.6</ele>
        <time>2021-08-15T14:59:37Z</time>
      </trkpt>
      <trkpt lat="43.99265" lon="4.0755">
        <ele>117</ele>
        <time>2021-08-15T14:59:57Z</time>
      </trkpt>
      <trkpt lat="43.99315" lon="4.07429">
        <ele>113.7</ele>
        <time>2021-08-15T15:00:27Z</time>
      </trkpt>
      <trkpt lat="43.99358" lon="4.07321">
        <ele>110.8</ele>
        <time>2021-08-15T15:00:47Z</time>
      </trkpt>
      <trkpt lat="43.99377" lon="4.07175">
        <ele>107.2</ele>
        <time>2021-08-15T15:01:07Z</time>
      </trkpt>
      <trkpt lat="43.99333" lon="4.07056">
        <ele>112.3</ele>
        <time>2021-08-15T15:08:33Z</time>
      </trkpt>
      <trkpt lat="43.99378" lon="4.07176">
        <ele>121.5</ele>
        <time>2021-08-15T16:23:33Z</time>
      </trkpt>
      <trkpt lat="43.9937" lon="4.0705">
        <ele>121.1</ele>
        <time>2021-08-15T16:24:34Z</time>
      </trkpt>
      <trkpt lat="43.99426" lon="4.06945">
        <ele>122.8</ele>
        <time>2021-08-15T16:25:04Z</time>
      </trkpt>
      <trkpt lat="43.99502" lon="4.0688">
        <ele>122</ele>
        <time>2021-08-15T16:25:29Z</time>
      </trkpt>
      <trkpt lat="43.99586" lon="4.06796">
        <ele>124.2</ele>
        <time>2021-08-15T16:28:51Z</time>
      </trkpt>
      <trkpt lat="43.99669" lon="4.0672">
        <ele>123.6</ele>
        <time>2021-08-15T16:29:16Z</time>
      </trkpt>
      <trkpt lat="43.99761" lon="4.06677">
        <ele>126.5</ele>
        <time>2021-08-15T16:29:36Z</time>
      </trkpt>
      <trkpt lat="43.99855" lon="4.06629">
        <ele>129.4</ele>
        <time>2021-08-15T16:29:56Z</time>
      </trkpt>
      <trkpt lat="43.99922" lon="4.06534">
        <ele>132.4</ele>
        <time>2021-08-15T16:30:16Z</time>
      </trkpt>
      <trkpt lat="43.99989" lon="4.0642">
        <ele>133.7</ele>
        <time>2021-08-15T16:30:41Z</time>
      </trkpt>
      <trkpt lat="44.00074" lon="4.06315">
        <ele>132.4</ele>
        <time>2021-08-15T16:31:06Z</time>
      </trkpt>
      <trkpt lat="44.00148" lon="4.06249">
        <ele>132.6</ele>
        <time>2021-08-15T16:31:21Z</time>
      </trkpt>
      <trkpt lat="44.00202" lon="4.06136">
        <ele>136</ele>
        <time>2021-08-15T16:35:03Z</time>
      </trkpt>
      <trkpt lat="44.00247" lon="4.06026">
        <ele>135.5</ele>
        <time>2021-08-15T16:35:18Z</time>
      </trkpt>
      <trkpt lat="44.00276" lon="4.05893">
        <ele>133</ele>
        <time>2021-08-15T16:35:33Z</time>
      </trkpt>
      <trkpt lat="44.0037" lon="4.0582">
        <ele>134.1</ele>
        <time>2021-08-15T16:35:53Z</time>
      </trkpt>
      <trkpt lat="44.00443" lon="4.05717">
        <ele>136.1</ele>
        <time>2021-08-15T16:36:13Z</time>
      </trkpt>
      <trkpt lat="44.0051" lon="4.05623">
        <ele>140.6</ele>
        <time>2021-08-15T16:36:33Z</time>
      </trkpt>
      <trkpt lat="44.00572" lon="4.05528">
        <ele>143.5</ele>
        <time>2021-08-15T16:36:58Z</time>
      </trkpt>
      <trkpt lat="44.00655" lon="4.05458">
        <ele>147</ele>
        <time>2021-08-15T16:37:28Z</time>
      </trkpt>
      <trkpt lat="44.00747" lon="4.05427">
        <ele>145.2</ele>
        <time>2021-08-15T16:37:43Z</time>
      </trkpt>
      <trkpt lat="44.00867" lon="4.05349">
        <ele>139.1</ele>
        <time>2021-08-15T16:37:58Z</time>
      </trkpt>
      <trkpt lat="44.00945" lon="4.05287">
        <ele>134.6</ele>
        <time>2021-08-15T16:38:22Z</time>
      </trkpt>
      <trkpt lat="44.0104" lon="4.05191">
        <ele>132.4</ele>
        <time>2021-08-15T16:38:42Z</time>
      </trkpt>
      <trkpt lat="44.01137" lon="4.0518">
        <ele>129.2</ele>
        <time>2021-08-15T16:38:57Z</time>
      </trkpt>
      <trkpt lat="44.01255" lon="4.05154">
        <ele>127.8</ele>
        <time>2021-08-15T16:39:12Z</time>
      </trkpt>
      <trkpt lat="44.01365" lon="4.05166">
        <ele>127.4</ele>
        <time>2021-08-15T16:39:27Z</time>
      </trkpt>
      <trkpt lat="44.01439" lon="4.05077">
        <ele>126.7</ele>
        <time>2021-08-15T16:39:52Z</time>
      </trkpt>
      <trkpt lat="44.0155" lon="4.05088">
        <ele>123.5</ele>
        <time>2021-08-15T16:40:40Z</time>
      </trkpt>
      <trkpt lat="44.01666" lon="4.05123">
        <ele>121.9</ele>
        <time>2021-08-15T16:41:00Z</time>
      </trkpt>
      <trkpt lat="44.01763" lon="4.0515">
        <ele>122.9</ele>
        <time>2021-08-15T16:41:15Z</time>
      </trkpt>
      <trkpt lat="44.01864" lon="4.05156">
        <ele>120.8</ele>
        <time>2021-08-15T16:41:30Z</time>
      </trkpt>
      <trkpt lat="44.01972" lon="4.05183">
        <ele>115</ele>
        <time>2021-08-15T16:41:50Z</time>
      </trkpt>
      <trkpt lat="44.01973" lon="4.05318">
        <ele>112.7</ele>
        <time>2021-08-15T16:42:05Z</time>
      </trkpt>
      <trkpt lat="44.01969" lon="4.05463">
        <ele>108.8</ele>
        <time>2021-08-15T16:42:20Z</time>
      </trkpt>
      <trkpt lat="44.0202" lon="4.05583">
        <ele>107.4</ele>
        <time>2021-08-15T16:42:35Z</time>
      </trkpt>
      <trkpt lat="44.02113" lon="4.05654">
        <ele>108.9</ele>
        <time>2021-08-15T16:42:50Z</time>
      </trkpt>
      <trkpt lat="44.02204" lon="4.05757">
        <ele>110.6</ele>
        <time>2021-08-15T16:43:05Z</time>
      </trkpt>
      <trkpt lat="44.02249" lon="4.05899">
        <ele>110.5</ele>
        <time>2021-08-15T16:43:20Z</time>
      </trkpt>
      <trkpt lat="44.02278" lon="4.06041">
        <ele>108</ele>
        <time>2021-08-15T16:43:35Z</time>
      </trkpt>
      <trkpt lat="44.02309" lon="4.0617">
        <ele>108.5</ele>
        <time>2021-08-15T16:43:50Z</time>
      </trkpt>
      <trkpt lat="44.02339" lon="4.06301">
        <ele>109.2</ele>
        <time>2021-08-15T16:44:05Z</time>
      </trkpt>
      <trkpt lat="44.02369" lon="4.06441">
        <ele>111.8</ele>
        <time>2021-08-15T16:44:20Z</time>
      </trkpt>
      <trkpt lat="44.024" lon="4.06584">
        <ele>111.3</ele>
        <time>2021-08-15T16:44:35Z</time>
      </trkpt>
      <trkpt lat="44.02428" lon="4.06721">
        <ele>111</ele>
        <time>2021-08-15T16:44:50Z</time>
      </trkpt>
      <trkpt lat="44.02448" lon="4.06859">
        <ele>109</ele>
        <time>2021-08-15T16:45:05Z</time>
      </trkpt>
      <trkpt lat="44.02469" lon="4.07002">
        <ele>108.6</ele>
        <time>2021-08-15T16:45:20Z</time>
      </trkpt>
      <trkpt lat="44.02464" lon="4.07132">
        <ele>105.9</ele>
        <time>2021-08-15T16:45:35Z</time>
      </trkpt>
      <trkpt lat="44.02456" lon="4.0729">
        <ele>105.1</ele>
        <time>2021-08-15T16:45:55Z</time>
      </trkpt>
      <trkpt lat="44.02438" lon="4.07437">
        <ele>103.1</ele>
        <time>2021-08-15T16:46:20Z</time>
      </trkpt>
      <trkpt lat="44.02407" lon="4.07574">
        <ele>101.8</ele>
        <time>2021-08-15T16:46:40Z</time>
      </trkpt>
      <trkpt lat="44.02395" lon="4.07723">
        <ele>98.1</ele>
        <time>2021-08-15T16:47:00Z</time>
      </trkpt>
      <trkpt lat="44.02407" lon="4.07861">
        <ele>100.8</ele>
        <time>2021-08-15T16:47:15Z</time>
      </trkpt>
      <trkpt lat="44.0243" lon="4.08008">
        <ele>102.2</ele>
        <time>2021-08-15T16:47:35Z</time>
      </trkpt>
      <trkpt lat="44.02538" lon="4.08043">
        <ele>105.9</ele>
        <time>2021-08-15T16:48:42Z</time>
      </trkpt>
      <trkpt lat="44.02626" lon="4.08005">
        <ele>107.5</ele>
        <time>2021-08-15T16:49:12Z</time>
      </trkpt>
      <trkpt lat="44.0268" lon="4.08131">
        <ele>109.6</ele>
        <time>2021-08-15T16:50:44Z</time>
      </trkpt>
      <trkpt lat="44.02698" lon="4.08265">
        <ele>108.7</ele>
        <time>2021-08-15T16:51:09Z</time>
      </trkpt>
      <trkpt lat="44.02727" lon="4.08386">
        <ele>107.9</ele>
        <time>2021-08-15T16:51:24Z</time>
      </trkpt>
      <trkpt lat="44.02778" lon="4.08533">
        <ele>107.4</ele>
        <time>2021-08-15T16:51:44Z</time>
      </trkpt>
      <trkpt lat="44.02867" lon="4.08651">
        <ele>102.7</ele>
        <time>2021-08-15T16:52:04Z</time>
      </trkpt>
      <trkpt lat="44.0295" lon="4.08714">
        <ele>99.6</ele>
        <time>2021-08-15T16:52:34Z</time>
      </trkpt>
    </trkseg>
  </trk>
</gpx>